<?xml version="1.0" encoding="UTF-8" standalone="no" ?>
<gpx xmlns="http://www.topografix.com/GPX/1/1" xmlns:xsi="http://www.w3.org/2001/XMLSchema-instance" xsi:schemaLocation="http://www.topografix.com/GPX/1/1 http://www.topografix.com/GPX/1/1/gpx.xsd" version="1.1" creator="VisuGPX - https://www.visugpx.com">
  <metadata>
    <name>Sophia_Roquefort</name>
    <desc><![CDATA[Sophia Air_France Roquefort les pins choix: mixte: route sans trafic, piste, sentier...]]></desc>
  </metadata>
  <trk>
    <name><![CDATA[9 mai 2017 17:34:10]]></name>
    <trkseg>
      <trkpt lat="43.62355" lon="7.03481">
        <ele>195.44</ele>
        <time>2017-05-09T15:34:11.999Z</time>
      </trkpt>
      <trkpt lat="43.62344" lon="7.03516">
        <ele>202.68</ele>
        <time>2017-05-09T15:34:54.999Z</time>
      </trkpt>
      <trkpt lat="43.62339" lon="7.03534">
        <ele>205.99</ele>
        <time>2017-05-09T15:34:58.999Z</time>
      </trkpt>
      <trkpt lat="43.62337" lon="7.03547">
        <ele>226.14</ele>
        <time>2017-05-09T15:35:01.999Z</time>
      </trkpt>
      <trkpt lat="43.62331" lon="7.03559">
        <ele>232.15</ele>
        <time>2017-05-09T15:35:03.999Z</time>
      </trkpt>
      <trkpt lat="43.62326" lon="7.03573">
        <ele>234.63</ele>
        <time>2017-05-09T15:35:05.999Z</time>
      </trkpt>
      <trkpt lat="43.62319" lon="7.03586">
        <ele>235.63</ele>
        <time>2017-05-09T15:35:07.999Z</time>
      </trkpt>
      <trkpt lat="43.62312" lon="7.03597">
        <ele>234.98</ele>
        <time>2017-05-09T15:35:09.999Z</time>
      </trkpt>
      <trkpt lat="43.6231" lon="7.0361">
        <ele>234.71</ele>
        <time>2017-05-09T15:35:11.999Z</time>
      </trkpt>
      <trkpt lat="43.62316" lon="7.03624">
        <ele>234.46</ele>
        <time>2017-05-09T15:35:14.999Z</time>
      </trkpt>
      <trkpt lat="43.62326" lon="7.03637">
        <ele>234.39</ele>
        <time>2017-05-09T15:35:17.999Z</time>
      </trkpt>
      <trkpt lat="43.62331" lon="7.03649">
        <ele>236.15</ele>
        <time>2017-05-09T15:35:19.999Z</time>
      </trkpt>
      <trkpt lat="43.6233" lon="7.03664">
        <ele>237.31</ele>
        <time>2017-05-09T15:35:21.999Z</time>
      </trkpt>
      <trkpt lat="43.62326" lon="7.03677">
        <ele>236.69</ele>
        <time>2017-05-09T15:35:23.999Z</time>
      </trkpt>
      <trkpt lat="43.62314" lon="7.03677">
        <ele>234.02</ele>
        <time>2017-05-09T15:35:25.999Z</time>
      </trkpt>
      <trkpt lat="43.62304" lon="7.03667">
        <ele>233.5</ele>
        <time>2017-05-09T15:35:27.999Z</time>
      </trkpt>
      <trkpt lat="43.62294" lon="7.03659">
        <ele>234.24</ele>
        <time>2017-05-09T15:35:29.999Z</time>
      </trkpt>
      <trkpt lat="43.62287" lon="7.03648">
        <ele>235.19</ele>
        <time>2017-05-09T15:35:31.999Z</time>
      </trkpt>
      <trkpt lat="43.62283" lon="7.03633">
        <ele>236.86</ele>
        <time>2017-05-09T15:35:34.999Z</time>
      </trkpt>
      <trkpt lat="43.62283" lon="7.0362">
        <ele>237.24</ele>
        <time>2017-05-09T15:35:37.999Z</time>
      </trkpt>
      <trkpt lat="43.62283" lon="7.03601">
        <ele>240.27</ele>
        <time>2017-05-09T15:35:42.999Z</time>
      </trkpt>
      <trkpt lat="43.62277" lon="7.03583">
        <ele>244.62</ele>
        <time>2017-05-09T15:35:44.999Z</time>
      </trkpt>
      <trkpt lat="43.62272" lon="7.03565">
        <ele>245.89</ele>
        <time>2017-05-09T15:35:46.999Z</time>
      </trkpt>
      <trkpt lat="43.62274" lon="7.03549">
        <ele>244.38</ele>
        <time>2017-05-09T15:35:48.999Z</time>
      </trkpt>
      <trkpt lat="43.62276" lon="7.03534">
        <ele>243.33</ele>
        <time>2017-05-09T15:35:50.999Z</time>
      </trkpt>
      <trkpt lat="43.62267" lon="7.03527">
        <ele>240.34</ele>
        <time>2017-05-09T15:35:52.999Z</time>
      </trkpt>
      <trkpt lat="43.62257" lon="7.0353">
        <ele>236.5</ele>
        <time>2017-05-09T15:35:54.999Z</time>
      </trkpt>
      <trkpt lat="43.62246" lon="7.03541">
        <ele>231.22</ele>
        <time>2017-05-09T15:35:56.999Z</time>
      </trkpt>
      <trkpt lat="43.62233" lon="7.0354">
        <ele>227.91</ele>
        <time>2017-05-09T15:35:58.999Z</time>
      </trkpt>
      <trkpt lat="43.62223" lon="7.03542">
        <ele>224.93</ele>
        <time>2017-05-09T15:36:00.999Z</time>
      </trkpt>
      <trkpt lat="43.62211" lon="7.03549">
        <ele>221.77</ele>
        <time>2017-05-09T15:36:03.999Z</time>
      </trkpt>
      <trkpt lat="43.62193" lon="7.03556">
        <ele>221.06</ele>
        <time>2017-05-09T15:36:16.999Z</time>
      </trkpt>
      <trkpt lat="43.62182" lon="7.0356">
        <ele>220.88</ele>
        <time>2017-05-09T15:36:19.999Z</time>
      </trkpt>
      <trkpt lat="43.62169" lon="7.03559">
        <ele>220.61</ele>
        <time>2017-05-09T15:36:23.999Z</time>
      </trkpt>
      <trkpt lat="43.62163" lon="7.03569">
        <ele>218.58</ele>
        <time>2017-05-09T15:36:30.999Z</time>
      </trkpt>
      <trkpt lat="43.62171" lon="7.03576">
        <ele>216.84</ele>
        <time>2017-05-09T15:36:34.999Z</time>
      </trkpt>
      <trkpt lat="43.62175" lon="7.0359">
        <ele>217.08</ele>
        <time>2017-05-09T15:36:37.999Z</time>
      </trkpt>
      <trkpt lat="43.62178" lon="7.03612">
        <ele>218.36</ele>
        <time>2017-05-09T15:36:40.999Z</time>
      </trkpt>
      <trkpt lat="43.62182" lon="7.03625">
        <ele>219.28</ele>
        <time>2017-05-09T15:36:42.999Z</time>
      </trkpt>
      <trkpt lat="43.62186" lon="7.03643">
        <ele>219.25</ele>
        <time>2017-05-09T15:36:45.999Z</time>
      </trkpt>
      <trkpt lat="43.6219" lon="7.03659">
        <ele>218.85</ele>
        <time>2017-05-09T15:36:48.999Z</time>
      </trkpt>
      <trkpt lat="43.62187" lon="7.03715">
        <ele>208.11</ele>
        <time>2017-05-09T15:37:14.498Z</time>
      </trkpt>
      <trkpt lat="43.62195" lon="7.03725">
        <ele>226.97</ele>
        <time>2017-05-09T15:37:18.999Z</time>
      </trkpt>
      <trkpt lat="43.62191" lon="7.03739">
        <ele>232</ele>
        <time>2017-05-09T15:37:22.000Z</time>
      </trkpt>
      <trkpt lat="43.62202" lon="7.03742">
        <ele>228.11</ele>
        <time>2017-05-09T15:37:27.000Z</time>
      </trkpt>
      <trkpt lat="43.62217" lon="7.03745">
        <ele>226.51</ele>
        <time>2017-05-09T15:37:34.000Z</time>
      </trkpt>
      <trkpt lat="43.62228" lon="7.03744">
        <ele>212.88</ele>
        <time>2017-05-09T15:37:37.000Z</time>
      </trkpt>
      <trkpt lat="43.62237" lon="7.03751">
        <ele>208.67</ele>
        <time>2017-05-09T15:37:39.000Z</time>
      </trkpt>
      <trkpt lat="43.62246" lon="7.03743">
        <ele>219.65</ele>
        <time>2017-05-09T15:37:43.000Z</time>
      </trkpt>
      <trkpt lat="43.62256" lon="7.03745">
        <ele>230.66</ele>
        <time>2017-05-09T15:37:49.000Z</time>
      </trkpt>
      <trkpt lat="43.62266" lon="7.03746">
        <ele>230.14</ele>
        <time>2017-05-09T15:37:57.000Z</time>
      </trkpt>
      <trkpt lat="43.62274" lon="7.0374">
        <ele>229.64</ele>
        <time>2017-05-09T15:38:11.000Z</time>
      </trkpt>
      <trkpt lat="43.62284" lon="7.0374">
        <ele>229.62</ele>
        <time>2017-05-09T15:38:17.000Z</time>
      </trkpt>
      <trkpt lat="43.62293" lon="7.03737">
        <ele>229.29</ele>
        <time>2017-05-09T15:38:22.000Z</time>
      </trkpt>
      <trkpt lat="43.62301" lon="7.0373">
        <ele>229.11</ele>
        <time>2017-05-09T15:38:26.000Z</time>
      </trkpt>
      <trkpt lat="43.62312" lon="7.03727">
        <ele>229.06</ele>
        <time>2017-05-09T15:38:31.000Z</time>
      </trkpt>
      <trkpt lat="43.62319" lon="7.03717">
        <ele>229.3</ele>
        <time>2017-05-09T15:38:35.000Z</time>
      </trkpt>
      <trkpt lat="43.62326" lon="7.03708">
        <ele>229.44</ele>
        <time>2017-05-09T15:38:39.000Z</time>
      </trkpt>
      <trkpt lat="43.62336" lon="7.03702">
        <ele>229.72</ele>
        <time>2017-05-09T15:38:43.000Z</time>
      </trkpt>
      <trkpt lat="43.62346" lon="7.03696">
        <ele>229.84</ele>
        <time>2017-05-09T15:38:46.000Z</time>
      </trkpt>
      <trkpt lat="43.62355" lon="7.037">
        <ele>230.23</ele>
        <time>2017-05-09T15:38:48.000Z</time>
      </trkpt>
      <trkpt lat="43.62366" lon="7.03703">
        <ele>231.01</ele>
        <time>2017-05-09T15:38:52.000Z</time>
      </trkpt>
      <trkpt lat="43.62375" lon="7.03697">
        <ele>231.95</ele>
        <time>2017-05-09T15:38:59.000Z</time>
      </trkpt>
      <trkpt lat="43.62386" lon="7.03691">
        <ele>232.32</ele>
        <time>2017-05-09T15:39:02.000Z</time>
      </trkpt>
      <trkpt lat="43.62397" lon="7.03682">
        <ele>232.83</ele>
        <time>2017-05-09T15:39:05.000Z</time>
      </trkpt>
      <trkpt lat="43.62405" lon="7.03677">
        <ele>232.85</ele>
        <time>2017-05-09T15:39:07.000Z</time>
      </trkpt>
      <trkpt lat="43.62417" lon="7.0368">
        <ele>232.8</ele>
        <time>2017-05-09T15:39:10.000Z</time>
      </trkpt>
      <trkpt lat="43.6243" lon="7.03683">
        <ele>232.78</ele>
        <time>2017-05-09T15:39:13.000Z</time>
      </trkpt>
      <trkpt lat="43.62442" lon="7.03684">
        <ele>232.33</ele>
        <time>2017-05-09T15:39:15.000Z</time>
      </trkpt>
      <trkpt lat="43.62453" lon="7.03692">
        <ele>232.21</ele>
        <time>2017-05-09T15:39:18.000Z</time>
      </trkpt>
      <trkpt lat="43.6246" lon="7.03701">
        <ele>231.81</ele>
        <time>2017-05-09T15:39:21.000Z</time>
      </trkpt>
      <trkpt lat="43.62468" lon="7.03706">
        <ele>232</ele>
        <time>2017-05-09T15:39:24.000Z</time>
      </trkpt>
      <trkpt lat="43.6248" lon="7.03708">
        <ele>232.62</ele>
        <time>2017-05-09T15:39:27.000Z</time>
      </trkpt>
      <trkpt lat="43.62489" lon="7.03708">
        <ele>233</ele>
        <time>2017-05-09T15:39:29.000Z</time>
      </trkpt>
      <trkpt lat="43.62499" lon="7.0371">
        <ele>234.59</ele>
        <time>2017-05-09T15:39:31.000Z</time>
      </trkpt>
      <trkpt lat="43.62508" lon="7.03713">
        <ele>236.37</ele>
        <time>2017-05-09T15:39:33.000Z</time>
      </trkpt>
      <trkpt lat="43.62521" lon="7.03715">
        <ele>236.89</ele>
        <time>2017-05-09T15:39:36.000Z</time>
      </trkpt>
      <trkpt lat="43.62531" lon="7.03714">
        <ele>237.43</ele>
        <time>2017-05-09T15:39:38.000Z</time>
      </trkpt>
      <trkpt lat="43.62542" lon="7.03713">
        <ele>234.04</ele>
        <time>2017-05-09T15:39:41.000Z</time>
      </trkpt>
      <trkpt lat="43.62555" lon="7.0371">
        <ele>232.12</ele>
        <time>2017-05-09T15:39:44.000Z</time>
      </trkpt>
      <trkpt lat="43.62565" lon="7.03712">
        <ele>230.87</ele>
        <time>2017-05-09T15:39:46.000Z</time>
      </trkpt>
      <trkpt lat="43.62577" lon="7.03716">
        <ele>229.44</ele>
        <time>2017-05-09T15:39:49.000Z</time>
      </trkpt>
      <trkpt lat="43.6259" lon="7.03723">
        <ele>229</ele>
        <time>2017-05-09T15:39:52.000Z</time>
      </trkpt>
      <trkpt lat="43.62598" lon="7.0373">
        <ele>230.42</ele>
        <time>2017-05-09T15:39:54.000Z</time>
      </trkpt>
      <trkpt lat="43.62606" lon="7.03736">
        <ele>231.89</ele>
        <time>2017-05-09T15:39:56.000Z</time>
      </trkpt>
      <trkpt lat="43.62617" lon="7.0374">
        <ele>234.01</ele>
        <time>2017-05-09T15:39:59.000Z</time>
      </trkpt>
      <trkpt lat="43.62628" lon="7.03742">
        <ele>236.39</ele>
        <time>2017-05-09T15:40:02.000Z</time>
      </trkpt>
      <trkpt lat="43.62637" lon="7.03745">
        <ele>238.36</ele>
        <time>2017-05-09T15:40:04.000Z</time>
      </trkpt>
      <trkpt lat="43.62648" lon="7.03745">
        <ele>240.13</ele>
        <time>2017-05-09T15:40:07.000Z</time>
      </trkpt>
      <trkpt lat="43.62659" lon="7.03743">
        <ele>240.56</ele>
        <time>2017-05-09T15:40:10.000Z</time>
      </trkpt>
      <trkpt lat="43.62669" lon="7.03737">
        <ele>240.93</ele>
        <time>2017-05-09T15:40:13.000Z</time>
      </trkpt>
      <trkpt lat="43.62678" lon="7.03729">
        <ele>241.25</ele>
        <time>2017-05-09T15:40:16.000Z</time>
      </trkpt>
      <trkpt lat="43.62688" lon="7.03723">
        <ele>241.67</ele>
        <time>2017-05-09T15:40:19.000Z</time>
      </trkpt>
      <trkpt lat="43.62699" lon="7.03716">
        <ele>241.74</ele>
        <time>2017-05-09T15:40:22.000Z</time>
      </trkpt>
      <trkpt lat="43.62708" lon="7.03711">
        <ele>241.53</ele>
        <time>2017-05-09T15:40:25.000Z</time>
      </trkpt>
      <trkpt lat="43.62717" lon="7.03704">
        <ele>241.09</ele>
        <time>2017-05-09T15:40:28.000Z</time>
      </trkpt>
      <trkpt lat="43.62727" lon="7.03696">
        <ele>240.61</ele>
        <time>2017-05-09T15:40:31.000Z</time>
      </trkpt>
      <trkpt lat="43.62734" lon="7.03688">
        <ele>239.49</ele>
        <time>2017-05-09T15:40:33.000Z</time>
      </trkpt>
      <trkpt lat="43.62745" lon="7.03677">
        <ele>239.81</ele>
        <time>2017-05-09T15:40:36.000Z</time>
      </trkpt>
      <trkpt lat="43.62753" lon="7.03669">
        <ele>240.07</ele>
        <time>2017-05-09T15:40:39.000Z</time>
      </trkpt>
      <trkpt lat="43.62761" lon="7.03659">
        <ele>239.61</ele>
        <time>2017-05-09T15:40:42.000Z</time>
      </trkpt>
      <trkpt lat="43.62767" lon="7.03647">
        <ele>241.51</ele>
        <time>2017-05-09T15:40:51.000Z</time>
      </trkpt>
      <trkpt lat="43.62777" lon="7.03636">
        <ele>242.52</ele>
        <time>2017-05-09T15:40:54.000Z</time>
      </trkpt>
      <trkpt lat="43.62785" lon="7.03628">
        <ele>243.59</ele>
        <time>2017-05-09T15:40:56.000Z</time>
      </trkpt>
      <trkpt lat="43.62796" lon="7.03614">
        <ele>244.42</ele>
        <time>2017-05-09T15:40:59.000Z</time>
      </trkpt>
      <trkpt lat="43.62803" lon="7.03604">
        <ele>245.4</ele>
        <time>2017-05-09T15:41:01.000Z</time>
      </trkpt>
      <trkpt lat="43.62811" lon="7.03594">
        <ele>245.57</ele>
        <time>2017-05-09T15:41:04.000Z</time>
      </trkpt>
      <trkpt lat="43.6282" lon="7.0359">
        <ele>245.61</ele>
        <time>2017-05-09T15:41:07.000Z</time>
      </trkpt>
      <trkpt lat="43.62829" lon="7.03584">
        <ele>245.65</ele>
        <time>2017-05-09T15:41:10.000Z</time>
      </trkpt>
      <trkpt lat="43.62833" lon="7.03572">
        <ele>245.88</ele>
        <time>2017-05-09T15:41:13.000Z</time>
      </trkpt>
      <trkpt lat="43.62837" lon="7.03556">
        <ele>247.55</ele>
        <time>2017-05-09T15:41:15.000Z</time>
      </trkpt>
      <trkpt lat="43.62842" lon="7.03542">
        <ele>249.58</ele>
        <time>2017-05-09T15:41:17.000Z</time>
      </trkpt>
      <trkpt lat="43.62849" lon="7.03528">
        <ele>249.31</ele>
        <time>2017-05-09T15:41:19.000Z</time>
      </trkpt>
      <trkpt lat="43.62856" lon="7.03515">
        <ele>248.03</ele>
        <time>2017-05-09T15:41:21.000Z</time>
      </trkpt>
      <trkpt lat="43.62862" lon="7.03503">
        <ele>246.66</ele>
        <time>2017-05-09T15:41:23.000Z</time>
      </trkpt>
      <trkpt lat="43.62868" lon="7.03491">
        <ele>246.07</ele>
        <time>2017-05-09T15:41:25.000Z</time>
      </trkpt>
      <trkpt lat="43.62874" lon="7.03477">
        <ele>246.21</ele>
        <time>2017-05-09T15:41:27.000Z</time>
      </trkpt>
      <trkpt lat="43.6288" lon="7.03464">
        <ele>246.08</ele>
        <time>2017-05-09T15:41:29.000Z</time>
      </trkpt>
      <trkpt lat="43.62887" lon="7.03451">
        <ele>245.94</ele>
        <time>2017-05-09T15:41:31.000Z</time>
      </trkpt>
      <trkpt lat="43.62894" lon="7.03438">
        <ele>244.03</ele>
        <time>2017-05-09T15:41:33.000Z</time>
      </trkpt>
      <trkpt lat="43.62902" lon="7.03423">
        <ele>242.52</ele>
        <time>2017-05-09T15:41:35.000Z</time>
      </trkpt>
      <trkpt lat="43.62911" lon="7.03395">
        <ele>241.2</ele>
        <time>2017-05-09T15:41:38.000Z</time>
      </trkpt>
      <trkpt lat="43.62915" lon="7.03375">
        <ele>241.58</ele>
        <time>2017-05-09T15:41:40.000Z</time>
      </trkpt>
      <trkpt lat="43.62916" lon="7.03351">
        <ele>242.41</ele>
        <time>2017-05-09T15:41:42.000Z</time>
      </trkpt>
      <trkpt lat="43.62916" lon="7.03338">
        <ele>242.98</ele>
        <time>2017-05-09T15:41:43.000Z</time>
      </trkpt>
      <trkpt lat="43.62915" lon="7.03324">
        <ele>243.29</ele>
        <time>2017-05-09T15:41:44.000Z</time>
      </trkpt>
      <trkpt lat="43.62912" lon="7.03305">
        <ele>243.52</ele>
        <time>2017-05-09T15:41:46.000Z</time>
      </trkpt>
      <trkpt lat="43.62907" lon="7.03293">
        <ele>244.05</ele>
        <time>2017-05-09T15:41:47.000Z</time>
      </trkpt>
      <trkpt lat="43.629" lon="7.03282">
        <ele>243.91</ele>
        <time>2017-05-09T15:41:48.000Z</time>
      </trkpt>
      <trkpt lat="43.62894" lon="7.03271">
        <ele>243.58</ele>
        <time>2017-05-09T15:41:49.000Z</time>
      </trkpt>
      <trkpt lat="43.62887" lon="7.03261">
        <ele>243.25</ele>
        <time>2017-05-09T15:41:50.000Z</time>
      </trkpt>
      <trkpt lat="43.62877" lon="7.0324">
        <ele>242.95</ele>
        <time>2017-05-09T15:41:52.000Z</time>
      </trkpt>
      <trkpt lat="43.62877" lon="7.03224">
        <ele>242.68</ele>
        <time>2017-05-09T15:41:53.000Z</time>
      </trkpt>
      <trkpt lat="43.62878" lon="7.03211">
        <ele>242.13</ele>
        <time>2017-05-09T15:41:54.000Z</time>
      </trkpt>
      <trkpt lat="43.62883" lon="7.03198">
        <ele>241.25</ele>
        <time>2017-05-09T15:41:55.000Z</time>
      </trkpt>
      <trkpt lat="43.62888" lon="7.03185">
        <ele>240.34</ele>
        <time>2017-05-09T15:41:56.000Z</time>
      </trkpt>
      <trkpt lat="43.62892" lon="7.03173">
        <ele>239.85</ele>
        <time>2017-05-09T15:41:57.000Z</time>
      </trkpt>
      <trkpt lat="43.62897" lon="7.0316">
        <ele>239.44</ele>
        <time>2017-05-09T15:41:58.000Z</time>
      </trkpt>
      <trkpt lat="43.62901" lon="7.03147">
        <ele>239.13</ele>
        <time>2017-05-09T15:41:59.000Z</time>
      </trkpt>
      <trkpt lat="43.62905" lon="7.03134">
        <ele>238.52</ele>
        <time>2017-05-09T15:42:00.000Z</time>
      </trkpt>
      <trkpt lat="43.62906" lon="7.03121">
        <ele>238.04</ele>
        <time>2017-05-09T15:42:01.000Z</time>
      </trkpt>
      <trkpt lat="43.62905" lon="7.03108">
        <ele>237.65</ele>
        <time>2017-05-09T15:42:02.000Z</time>
      </trkpt>
      <trkpt lat="43.62903" lon="7.03095">
        <ele>237.37</ele>
        <time>2017-05-09T15:42:03.000Z</time>
      </trkpt>
      <trkpt lat="43.62901" lon="7.03081">
        <ele>237.12</ele>
        <time>2017-05-09T15:42:04.000Z</time>
      </trkpt>
      <trkpt lat="43.629" lon="7.03068">
        <ele>236.88</ele>
        <time>2017-05-09T15:42:05.000Z</time>
      </trkpt>
      <trkpt lat="43.62899" lon="7.03054">
        <ele>236.28</ele>
        <time>2017-05-09T15:42:06.000Z</time>
      </trkpt>
      <trkpt lat="43.62899" lon="7.0304">
        <ele>236.04</ele>
        <time>2017-05-09T15:42:07.000Z</time>
      </trkpt>
      <trkpt lat="43.62901" lon="7.03025">
        <ele>235.3</ele>
        <time>2017-05-09T15:42:08.000Z</time>
      </trkpt>
      <trkpt lat="43.62904" lon="7.03008">
        <ele>234.33</ele>
        <time>2017-05-09T15:42:09.000Z</time>
      </trkpt>
      <trkpt lat="43.62906" lon="7.02994">
        <ele>233.55</ele>
        <time>2017-05-09T15:42:10.000Z</time>
      </trkpt>
      <trkpt lat="43.62909" lon="7.0298">
        <ele>232</ele>
        <time>2017-05-09T15:42:11.000Z</time>
      </trkpt>
      <trkpt lat="43.62912" lon="7.02965">
        <ele>230.79</ele>
        <time>2017-05-09T15:42:12.000Z</time>
      </trkpt>
      <trkpt lat="43.62914" lon="7.02952">
        <ele>229.34</ele>
        <time>2017-05-09T15:42:13.000Z</time>
      </trkpt>
      <trkpt lat="43.62915" lon="7.02938">
        <ele>228.09</ele>
        <time>2017-05-09T15:42:14.000Z</time>
      </trkpt>
      <trkpt lat="43.62915" lon="7.02922">
        <ele>226.64</ele>
        <time>2017-05-09T15:42:15.000Z</time>
      </trkpt>
      <trkpt lat="43.62916" lon="7.02906">
        <ele>225.87</ele>
        <time>2017-05-09T15:42:16.000Z</time>
      </trkpt>
      <trkpt lat="43.62915" lon="7.02892">
        <ele>225.16</ele>
        <time>2017-05-09T15:42:17.000Z</time>
      </trkpt>
      <trkpt lat="43.62915" lon="7.02878">
        <ele>224.68</ele>
        <time>2017-05-09T15:42:18.000Z</time>
      </trkpt>
      <trkpt lat="43.62914" lon="7.02865">
        <ele>223.57</ele>
        <time>2017-05-09T15:42:19.000Z</time>
      </trkpt>
      <trkpt lat="43.62913" lon="7.02848">
        <ele>221.62</ele>
        <time>2017-05-09T15:42:20.000Z</time>
      </trkpt>
      <trkpt lat="43.62912" lon="7.02835">
        <ele>220.62</ele>
        <time>2017-05-09T15:42:21.000Z</time>
      </trkpt>
      <trkpt lat="43.62913" lon="7.02813">
        <ele>218.14</ele>
        <time>2017-05-09T15:42:23.000Z</time>
      </trkpt>
      <trkpt lat="43.62917" lon="7.02796">
        <ele>215</ele>
        <time>2017-05-09T15:42:25.000Z</time>
      </trkpt>
      <trkpt lat="43.62927" lon="7.02787">
        <ele>211.68</ele>
        <time>2017-05-09T15:42:27.000Z</time>
      </trkpt>
      <trkpt lat="43.62938" lon="7.02784">
        <ele>209.74</ele>
        <time>2017-05-09T15:42:29.000Z</time>
      </trkpt>
      <trkpt lat="43.62947" lon="7.02779">
        <ele>210.17</ele>
        <time>2017-05-09T15:42:31.000Z</time>
      </trkpt>
      <trkpt lat="43.62956" lon="7.02773">
        <ele>210.54</ele>
        <time>2017-05-09T15:42:33.000Z</time>
      </trkpt>
      <trkpt lat="43.62964" lon="7.02761">
        <ele>210.45</ele>
        <time>2017-05-09T15:42:36.000Z</time>
      </trkpt>
      <trkpt lat="43.62972" lon="7.0275">
        <ele>210.26</ele>
        <time>2017-05-09T15:42:39.000Z</time>
      </trkpt>
      <trkpt lat="43.62979" lon="7.0274">
        <ele>210.07</ele>
        <time>2017-05-09T15:42:42.000Z</time>
      </trkpt>
      <trkpt lat="43.62986" lon="7.02729">
        <ele>209.95</ele>
        <time>2017-05-09T15:42:45.000Z</time>
      </trkpt>
      <trkpt lat="43.62994" lon="7.02715">
        <ele>209.78</ele>
        <time>2017-05-09T15:42:49.000Z</time>
      </trkpt>
      <trkpt lat="43.63002" lon="7.02703">
        <ele>209.85</ele>
        <time>2017-05-09T15:42:52.000Z</time>
      </trkpt>
      <trkpt lat="43.63009" lon="7.02692">
        <ele>209.98</ele>
        <time>2017-05-09T15:42:55.000Z</time>
      </trkpt>
      <trkpt lat="43.63015" lon="7.0268">
        <ele>210.13</ele>
        <time>2017-05-09T15:42:58.000Z</time>
      </trkpt>
      <trkpt lat="43.63021" lon="7.02666">
        <ele>211.05</ele>
        <time>2017-05-09T15:43:01.000Z</time>
      </trkpt>
      <trkpt lat="43.63025" lon="7.02652">
        <ele>209.95</ele>
        <time>2017-05-09T15:43:04.000Z</time>
      </trkpt>
      <trkpt lat="43.63029" lon="7.02636">
        <ele>210.65</ele>
        <time>2017-05-09T15:43:07.000Z</time>
      </trkpt>
      <trkpt lat="43.63033" lon="7.0262">
        <ele>210.84</ele>
        <time>2017-05-09T15:43:10.000Z</time>
      </trkpt>
      <trkpt lat="43.63035" lon="7.02607">
        <ele>211.04</ele>
        <time>2017-05-09T15:43:12.000Z</time>
      </trkpt>
      <trkpt lat="43.63041" lon="7.02597">
        <ele>212.16</ele>
        <time>2017-05-09T15:43:14.000Z</time>
      </trkpt>
      <trkpt lat="43.63051" lon="7.02587">
        <ele>212.47</ele>
        <time>2017-05-09T15:43:17.000Z</time>
      </trkpt>
      <trkpt lat="43.6306" lon="7.02576">
        <ele>215.31</ele>
        <time>2017-05-09T15:43:19.000Z</time>
      </trkpt>
      <trkpt lat="43.6307" lon="7.0256">
        <ele>216.84</ele>
        <time>2017-05-09T15:43:21.000Z</time>
      </trkpt>
      <trkpt lat="43.63079" lon="7.02547">
        <ele>216.93</ele>
        <time>2017-05-09T15:43:23.000Z</time>
      </trkpt>
      <trkpt lat="43.63088" lon="7.02542">
        <ele>216.83</ele>
        <time>2017-05-09T15:43:26.000Z</time>
      </trkpt>
      <trkpt lat="43.63108" lon="7.02535">
        <ele>217.35</ele>
        <time>2017-05-09T15:43:38.000Z</time>
      </trkpt>
      <trkpt lat="43.63118" lon="7.02536">
        <ele>217.74</ele>
        <time>2017-05-09T15:43:42.000Z</time>
      </trkpt>
      <trkpt lat="43.63128" lon="7.02537">
        <ele>217.92</ele>
        <time>2017-05-09T15:43:45.000Z</time>
      </trkpt>
      <trkpt lat="43.63138" lon="7.02537">
        <ele>218.32</ele>
        <time>2017-05-09T15:43:48.000Z</time>
      </trkpt>
      <trkpt lat="43.63149" lon="7.0254">
        <ele>218.74</ele>
        <time>2017-05-09T15:43:51.000Z</time>
      </trkpt>
      <trkpt lat="43.63157" lon="7.02552">
        <ele>219.5</ele>
        <time>2017-05-09T15:43:54.000Z</time>
      </trkpt>
      <trkpt lat="43.63164" lon="7.02567">
        <ele>222.97</ele>
        <time>2017-05-09T15:43:57.000Z</time>
      </trkpt>
      <trkpt lat="43.63168" lon="7.02585">
        <ele>223.57</ele>
        <time>2017-05-09T15:44:00.000Z</time>
      </trkpt>
      <trkpt lat="43.63166" lon="7.02607">
        <ele>223.86</ele>
        <time>2017-05-09T15:44:02.000Z</time>
      </trkpt>
      <trkpt lat="43.63162" lon="7.02621">
        <ele>223.98</ele>
        <time>2017-05-09T15:44:04.000Z</time>
      </trkpt>
      <trkpt lat="43.63155" lon="7.02637">
        <ele>224.69</ele>
        <time>2017-05-09T15:44:07.000Z</time>
      </trkpt>
      <trkpt lat="43.6315" lon="7.0265">
        <ele>224.76</ele>
        <time>2017-05-09T15:44:10.000Z</time>
      </trkpt>
      <trkpt lat="43.63146" lon="7.02664">
        <ele>224.76</ele>
        <time>2017-05-09T15:44:13.000Z</time>
      </trkpt>
      <trkpt lat="43.63141" lon="7.0268">
        <ele>224.13</ele>
        <time>2017-05-09T15:44:16.000Z</time>
      </trkpt>
      <trkpt lat="43.63136" lon="7.02694">
        <ele>224.17</ele>
        <time>2017-05-09T15:44:19.000Z</time>
      </trkpt>
      <trkpt lat="43.63131" lon="7.02708">
        <ele>224.25</ele>
        <time>2017-05-09T15:44:22.000Z</time>
      </trkpt>
      <trkpt lat="43.63126" lon="7.02723">
        <ele>224.13</ele>
        <time>2017-05-09T15:44:25.000Z</time>
      </trkpt>
      <trkpt lat="43.6312" lon="7.02736">
        <ele>224.09</ele>
        <time>2017-05-09T15:44:28.000Z</time>
      </trkpt>
      <trkpt lat="43.63115" lon="7.02749">
        <ele>224.16</ele>
        <time>2017-05-09T15:44:31.000Z</time>
      </trkpt>
      <trkpt lat="43.63112" lon="7.02764">
        <ele>224.12</ele>
        <time>2017-05-09T15:44:34.000Z</time>
      </trkpt>
      <trkpt lat="43.63107" lon="7.02778">
        <ele>223.87</ele>
        <time>2017-05-09T15:44:37.000Z</time>
      </trkpt>
      <trkpt lat="43.63103" lon="7.02793">
        <ele>223.55</ele>
        <time>2017-05-09T15:44:40.000Z</time>
      </trkpt>
      <trkpt lat="43.63096" lon="7.02809">
        <ele>223.46</ele>
        <time>2017-05-09T15:44:43.000Z</time>
      </trkpt>
      <trkpt lat="43.63091" lon="7.02824">
        <ele>223.6</ele>
        <time>2017-05-09T15:44:46.000Z</time>
      </trkpt>
      <trkpt lat="43.63088" lon="7.02836">
        <ele>223.78</ele>
        <time>2017-05-09T15:44:49.000Z</time>
      </trkpt>
      <trkpt lat="43.63087" lon="7.02849">
        <ele>224.23</ele>
        <time>2017-05-09T15:44:52.000Z</time>
      </trkpt>
      <trkpt lat="43.63085" lon="7.02863">
        <ele>224.68</ele>
        <time>2017-05-09T15:44:55.000Z</time>
      </trkpt>
      <trkpt lat="43.63084" lon="7.02879">
        <ele>225.42</ele>
        <time>2017-05-09T15:44:58.000Z</time>
      </trkpt>
      <trkpt lat="43.63086" lon="7.02894">
        <ele>226.27</ele>
        <time>2017-05-09T15:45:01.000Z</time>
      </trkpt>
      <trkpt lat="43.63088" lon="7.02907">
        <ele>230.06</ele>
        <time>2017-05-09T15:45:03.000Z</time>
      </trkpt>
      <trkpt lat="43.63091" lon="7.02919">
        <ele>232.87</ele>
        <time>2017-05-09T15:45:05.000Z</time>
      </trkpt>
      <trkpt lat="43.63092" lon="7.02934">
        <ele>235.8</ele>
        <time>2017-05-09T15:45:08.000Z</time>
      </trkpt>
      <trkpt lat="43.63096" lon="7.02949">
        <ele>236.35</ele>
        <time>2017-05-09T15:45:11.000Z</time>
      </trkpt>
      <trkpt lat="43.63101" lon="7.02962">
        <ele>237.04</ele>
        <time>2017-05-09T15:45:15.000Z</time>
      </trkpt>
      <trkpt lat="43.63104" lon="7.02977">
        <ele>237.72</ele>
        <time>2017-05-09T15:45:18.000Z</time>
      </trkpt>
      <trkpt lat="43.63106" lon="7.02995">
        <ele>238.37</ele>
        <time>2017-05-09T15:45:21.000Z</time>
      </trkpt>
      <trkpt lat="43.63105" lon="7.03008">
        <ele>238.72</ele>
        <time>2017-05-09T15:45:23.000Z</time>
      </trkpt>
      <trkpt lat="43.63108" lon="7.03022">
        <ele>240.7</ele>
        <time>2017-05-09T15:45:26.000Z</time>
      </trkpt>
      <trkpt lat="43.63115" lon="7.03036">
        <ele>241.16</ele>
        <time>2017-05-09T15:45:29.000Z</time>
      </trkpt>
      <trkpt lat="43.63119" lon="7.03049">
        <ele>241.33</ele>
        <time>2017-05-09T15:45:31.000Z</time>
      </trkpt>
      <trkpt lat="43.63122" lon="7.03064">
        <ele>241.55</ele>
        <time>2017-05-09T15:45:34.000Z</time>
      </trkpt>
      <trkpt lat="43.63127" lon="7.0308">
        <ele>241.67</ele>
        <time>2017-05-09T15:45:37.000Z</time>
      </trkpt>
      <trkpt lat="43.63129" lon="7.03093">
        <ele>241.91</ele>
        <time>2017-05-09T15:45:39.000Z</time>
      </trkpt>
      <trkpt lat="43.63128" lon="7.03108">
        <ele>242.01</ele>
        <time>2017-05-09T15:45:41.000Z</time>
      </trkpt>
      <trkpt lat="43.63126" lon="7.03126">
        <ele>241.96</ele>
        <time>2017-05-09T15:45:44.000Z</time>
      </trkpt>
      <trkpt lat="43.63131" lon="7.03146">
        <ele>240.03</ele>
        <time>2017-05-09T15:45:47.000Z</time>
      </trkpt>
      <trkpt lat="43.63136" lon="7.0316">
        <ele>239.92</ele>
        <time>2017-05-09T15:45:49.000Z</time>
      </trkpt>
      <trkpt lat="43.63141" lon="7.03171">
        <ele>240.14</ele>
        <time>2017-05-09T15:45:51.000Z</time>
      </trkpt>
      <trkpt lat="43.63145" lon="7.03183">
        <ele>240.58</ele>
        <time>2017-05-09T15:45:53.000Z</time>
      </trkpt>
      <trkpt lat="43.6315" lon="7.03195">
        <ele>241.53</ele>
        <time>2017-05-09T15:45:55.000Z</time>
      </trkpt>
      <trkpt lat="43.63154" lon="7.03206">
        <ele>242.12</ele>
        <time>2017-05-09T15:45:57.000Z</time>
      </trkpt>
      <trkpt lat="43.63161" lon="7.03222">
        <ele>242.81</ele>
        <time>2017-05-09T15:46:00.000Z</time>
      </trkpt>
      <trkpt lat="43.63163" lon="7.03234">
        <ele>242.99</ele>
        <time>2017-05-09T15:46:02.000Z</time>
      </trkpt>
      <trkpt lat="43.63166" lon="7.03249">
        <ele>243.22</ele>
        <time>2017-05-09T15:46:04.000Z</time>
      </trkpt>
      <trkpt lat="43.63168" lon="7.03265">
        <ele>243.55</ele>
        <time>2017-05-09T15:46:07.000Z</time>
      </trkpt>
      <trkpt lat="43.63172" lon="7.03282">
        <ele>243.59</ele>
        <time>2017-05-09T15:46:10.000Z</time>
      </trkpt>
      <trkpt lat="43.63177" lon="7.03297">
        <ele>243.75</ele>
        <time>2017-05-09T15:46:13.000Z</time>
      </trkpt>
      <trkpt lat="43.63182" lon="7.03309">
        <ele>243.91</ele>
        <time>2017-05-09T15:46:16.000Z</time>
      </trkpt>
      <trkpt lat="43.63184" lon="7.03326">
        <ele>244.06</ele>
        <time>2017-05-09T15:46:19.000Z</time>
      </trkpt>
      <trkpt lat="43.63188" lon="7.03338">
        <ele>244.01</ele>
        <time>2017-05-09T15:46:21.000Z</time>
      </trkpt>
      <trkpt lat="43.63191" lon="7.03349">
        <ele>243.85</ele>
        <time>2017-05-09T15:46:23.000Z</time>
      </trkpt>
      <trkpt lat="43.63197" lon="7.03363">
        <ele>244.13</ele>
        <time>2017-05-09T15:46:26.000Z</time>
      </trkpt>
      <trkpt lat="43.63204" lon="7.03374">
        <ele>244.39</ele>
        <time>2017-05-09T15:46:29.000Z</time>
      </trkpt>
      <trkpt lat="43.63212" lon="7.03384">
        <ele>244.59</ele>
        <time>2017-05-09T15:46:32.000Z</time>
      </trkpt>
      <trkpt lat="43.63222" lon="7.03392">
        <ele>245.23</ele>
        <time>2017-05-09T15:46:35.000Z</time>
      </trkpt>
      <trkpt lat="43.63235" lon="7.03395">
        <ele>247.1</ele>
        <time>2017-05-09T15:46:38.000Z</time>
      </trkpt>
      <trkpt lat="43.63246" lon="7.03395">
        <ele>250.16</ele>
        <time>2017-05-09T15:46:41.000Z</time>
      </trkpt>
      <trkpt lat="43.6326" lon="7.03391">
        <ele>253.57</ele>
        <time>2017-05-09T15:46:44.000Z</time>
      </trkpt>
      <trkpt lat="43.63273" lon="7.03386">
        <ele>252.58</ele>
        <time>2017-05-09T15:46:47.000Z</time>
      </trkpt>
      <trkpt lat="43.63285" lon="7.03379">
        <ele>251.23</ele>
        <time>2017-05-09T15:46:50.000Z</time>
      </trkpt>
      <trkpt lat="43.63294" lon="7.03374">
        <ele>249.13</ele>
        <time>2017-05-09T15:46:52.000Z</time>
      </trkpt>
      <trkpt lat="43.63303" lon="7.0337">
        <ele>248.28</ele>
        <time>2017-05-09T15:46:54.000Z</time>
      </trkpt>
      <trkpt lat="43.63314" lon="7.03365">
        <ele>247.61</ele>
        <time>2017-05-09T15:46:57.000Z</time>
      </trkpt>
      <trkpt lat="43.63326" lon="7.03365">
        <ele>247.55</ele>
        <time>2017-05-09T15:46:59.000Z</time>
      </trkpt>
      <trkpt lat="43.63336" lon="7.03365">
        <ele>248.01</ele>
        <time>2017-05-09T15:47:01.000Z</time>
      </trkpt>
      <trkpt lat="43.63345" lon="7.03363">
        <ele>247.12</ele>
        <time>2017-05-09T15:47:03.000Z</time>
      </trkpt>
      <trkpt lat="43.63355" lon="7.03358">
        <ele>247.44</ele>
        <time>2017-05-09T15:47:05.000Z</time>
      </trkpt>
      <trkpt lat="43.63365" lon="7.03355">
        <ele>247.69</ele>
        <time>2017-05-09T15:47:07.000Z</time>
      </trkpt>
      <trkpt lat="43.63376" lon="7.03351">
        <ele>247.25</ele>
        <time>2017-05-09T15:47:10.000Z</time>
      </trkpt>
      <trkpt lat="43.63384" lon="7.03346">
        <ele>246.16</ele>
        <time>2017-05-09T15:47:12.000Z</time>
      </trkpt>
      <trkpt lat="43.63393" lon="7.0334">
        <ele>246.68</ele>
        <time>2017-05-09T15:47:14.000Z</time>
      </trkpt>
      <trkpt lat="43.63402" lon="7.03332">
        <ele>248.2</ele>
        <time>2017-05-09T15:47:16.000Z</time>
      </trkpt>
      <trkpt lat="43.63411" lon="7.03325">
        <ele>248.05</ele>
        <time>2017-05-09T15:47:18.000Z</time>
      </trkpt>
      <trkpt lat="43.63419" lon="7.03319">
        <ele>248.52</ele>
        <time>2017-05-09T15:47:20.000Z</time>
      </trkpt>
      <trkpt lat="43.63427" lon="7.03312">
        <ele>248.38</ele>
        <time>2017-05-09T15:47:22.000Z</time>
      </trkpt>
      <trkpt lat="43.63439" lon="7.03302">
        <ele>248.21</ele>
        <time>2017-05-09T15:47:25.000Z</time>
      </trkpt>
      <trkpt lat="43.63447" lon="7.03295">
        <ele>248</ele>
        <time>2017-05-09T15:47:27.000Z</time>
      </trkpt>
      <trkpt lat="43.63456" lon="7.03288">
        <ele>247.75</ele>
        <time>2017-05-09T15:47:29.000Z</time>
      </trkpt>
      <trkpt lat="43.63465" lon="7.03276">
        <ele>246.68</ele>
        <time>2017-05-09T15:47:32.000Z</time>
      </trkpt>
      <trkpt lat="43.63474" lon="7.03268">
        <ele>246.32</ele>
        <time>2017-05-09T15:47:34.000Z</time>
      </trkpt>
      <trkpt lat="43.63484" lon="7.03258">
        <ele>246.17</ele>
        <time>2017-05-09T15:47:36.000Z</time>
      </trkpt>
      <trkpt lat="43.63491" lon="7.03245">
        <ele>245.98</ele>
        <time>2017-05-09T15:47:38.000Z</time>
      </trkpt>
      <trkpt lat="43.63497" lon="7.03232">
        <ele>245.19</ele>
        <time>2017-05-09T15:47:40.000Z</time>
      </trkpt>
      <trkpt lat="43.63503" lon="7.03219">
        <ele>245.45</ele>
        <time>2017-05-09T15:47:42.000Z</time>
      </trkpt>
      <trkpt lat="43.63506" lon="7.03207">
        <ele>245.39</ele>
        <time>2017-05-09T15:47:44.000Z</time>
      </trkpt>
      <trkpt lat="43.63509" lon="7.03193">
        <ele>244.27</ele>
        <time>2017-05-09T15:47:46.000Z</time>
      </trkpt>
      <trkpt lat="43.63512" lon="7.03177">
        <ele>243.77</ele>
        <time>2017-05-09T15:47:48.000Z</time>
      </trkpt>
      <trkpt lat="43.63514" lon="7.03162">
        <ele>242.4</ele>
        <time>2017-05-09T15:47:50.000Z</time>
      </trkpt>
      <trkpt lat="43.63516" lon="7.03148">
        <ele>241.42</ele>
        <time>2017-05-09T15:47:52.000Z</time>
      </trkpt>
      <trkpt lat="43.63517" lon="7.03134">
        <ele>240.32</ele>
        <time>2017-05-09T15:47:54.000Z</time>
      </trkpt>
      <trkpt lat="43.63519" lon="7.03118">
        <ele>238.96</ele>
        <time>2017-05-09T15:47:56.000Z</time>
      </trkpt>
      <trkpt lat="43.63519" lon="7.03104">
        <ele>238.38</ele>
        <time>2017-05-09T15:47:58.000Z</time>
      </trkpt>
      <trkpt lat="43.63518" lon="7.03088">
        <ele>238.2</ele>
        <time>2017-05-09T15:48:00.000Z</time>
      </trkpt>
      <trkpt lat="43.63518" lon="7.03074">
        <ele>237.9</ele>
        <time>2017-05-09T15:48:02.000Z</time>
      </trkpt>
      <trkpt lat="43.63517" lon="7.03058">
        <ele>237.64</ele>
        <time>2017-05-09T15:48:04.000Z</time>
      </trkpt>
      <trkpt lat="43.63517" lon="7.03038">
        <ele>237.52</ele>
        <time>2017-05-09T15:48:06.000Z</time>
      </trkpt>
      <trkpt lat="43.63516" lon="7.03022">
        <ele>237.87</ele>
        <time>2017-05-09T15:48:08.000Z</time>
      </trkpt>
      <trkpt lat="43.63516" lon="7.03006">
        <ele>237.92</ele>
        <time>2017-05-09T15:48:10.000Z</time>
      </trkpt>
      <trkpt lat="43.63516" lon="7.02991">
        <ele>238.07</ele>
        <time>2017-05-09T15:48:12.000Z</time>
      </trkpt>
      <trkpt lat="43.63516" lon="7.02976">
        <ele>237.19</ele>
        <time>2017-05-09T15:48:14.000Z</time>
      </trkpt>
      <trkpt lat="43.63516" lon="7.02958">
        <ele>236.04</ele>
        <time>2017-05-09T15:48:16.000Z</time>
      </trkpt>
      <trkpt lat="43.63516" lon="7.02945">
        <ele>235.88</ele>
        <time>2017-05-09T15:48:18.000Z</time>
      </trkpt>
      <trkpt lat="43.63517" lon="7.0293">
        <ele>235.19</ele>
        <time>2017-05-09T15:48:20.000Z</time>
      </trkpt>
      <trkpt lat="43.63517" lon="7.02916">
        <ele>234.95</ele>
        <time>2017-05-09T15:48:22.000Z</time>
      </trkpt>
      <trkpt lat="43.63516" lon="7.02899">
        <ele>235.48</ele>
        <time>2017-05-09T15:48:24.000Z</time>
      </trkpt>
      <trkpt lat="43.63514" lon="7.02883">
        <ele>237.74</ele>
        <time>2017-05-09T15:48:26.000Z</time>
      </trkpt>
      <trkpt lat="43.63507" lon="7.02868">
        <ele>240.05</ele>
        <time>2017-05-09T15:48:28.000Z</time>
      </trkpt>
      <trkpt lat="43.63501" lon="7.02853">
        <ele>240.66</ele>
        <time>2017-05-09T15:48:30.000Z</time>
      </trkpt>
      <trkpt lat="43.63496" lon="7.02838">
        <ele>240.71</ele>
        <time>2017-05-09T15:48:32.000Z</time>
      </trkpt>
      <trkpt lat="43.63492" lon="7.02822">
        <ele>241.83</ele>
        <time>2017-05-09T15:48:34.000Z</time>
      </trkpt>
      <trkpt lat="43.63491" lon="7.02807">
        <ele>242.27</ele>
        <time>2017-05-09T15:48:36.000Z</time>
      </trkpt>
      <trkpt lat="43.63498" lon="7.02795">
        <ele>241.94</ele>
        <time>2017-05-09T15:48:38.000Z</time>
      </trkpt>
      <trkpt lat="43.63508" lon="7.02784">
        <ele>241.05</ele>
        <time>2017-05-09T15:48:40.000Z</time>
      </trkpt>
      <trkpt lat="43.63518" lon="7.02777">
        <ele>240.37</ele>
        <time>2017-05-09T15:48:42.000Z</time>
      </trkpt>
      <trkpt lat="43.63528" lon="7.02768">
        <ele>240.32</ele>
        <time>2017-05-09T15:48:44.000Z</time>
      </trkpt>
      <trkpt lat="43.63536" lon="7.02761">
        <ele>240.51</ele>
        <time>2017-05-09T15:48:46.000Z</time>
      </trkpt>
      <trkpt lat="43.63545" lon="7.02754">
        <ele>240.26</ele>
        <time>2017-05-09T15:48:48.000Z</time>
      </trkpt>
      <trkpt lat="43.63556" lon="7.02745">
        <ele>239.9</ele>
        <time>2017-05-09T15:48:51.000Z</time>
      </trkpt>
      <trkpt lat="43.63563" lon="7.02736">
        <ele>239.05</ele>
        <time>2017-05-09T15:48:53.000Z</time>
      </trkpt>
      <trkpt lat="43.6357" lon="7.02726">
        <ele>237.11</ele>
        <time>2017-05-09T15:48:55.000Z</time>
      </trkpt>
      <trkpt lat="43.63578" lon="7.0271">
        <ele>235.88</ele>
        <time>2017-05-09T15:48:57.000Z</time>
      </trkpt>
      <trkpt lat="43.63586" lon="7.02697">
        <ele>235.28</ele>
        <time>2017-05-09T15:48:59.000Z</time>
      </trkpt>
      <trkpt lat="43.63593" lon="7.02684">
        <ele>233.76</ele>
        <time>2017-05-09T15:49:01.000Z</time>
      </trkpt>
      <trkpt lat="43.63602" lon="7.02675">
        <ele>232.76</ele>
        <time>2017-05-09T15:49:03.000Z</time>
      </trkpt>
      <trkpt lat="43.63607" lon="7.02664">
        <ele>232.68</ele>
        <time>2017-05-09T15:49:06.000Z</time>
      </trkpt>
      <trkpt lat="43.63615" lon="7.02646">
        <ele>232.35</ele>
        <time>2017-05-09T15:49:09.000Z</time>
      </trkpt>
      <trkpt lat="43.63623" lon="7.02642">
        <ele>232.35</ele>
        <time>2017-05-09T15:49:11.000Z</time>
      </trkpt>
      <trkpt lat="43.63633" lon="7.02649">
        <ele>232.52</ele>
        <time>2017-05-09T15:49:15.000Z</time>
      </trkpt>
      <trkpt lat="43.63638" lon="7.0266">
        <ele>233.13</ele>
        <time>2017-05-09T15:49:17.000Z</time>
      </trkpt>
      <trkpt lat="43.63641" lon="7.02673">
        <ele>234.47</ele>
        <time>2017-05-09T15:49:19.000Z</time>
      </trkpt>
      <trkpt lat="43.63645" lon="7.02685">
        <ele>234.78</ele>
        <time>2017-05-09T15:49:21.000Z</time>
      </trkpt>
      <trkpt lat="43.63652" lon="7.02694">
        <ele>235.53</ele>
        <time>2017-05-09T15:49:23.000Z</time>
      </trkpt>
      <trkpt lat="43.63661" lon="7.02692">
        <ele>236.57</ele>
        <time>2017-05-09T15:49:26.000Z</time>
      </trkpt>
      <trkpt lat="43.63674" lon="7.02685">
        <ele>235.28</ele>
        <time>2017-05-09T15:49:29.000Z</time>
      </trkpt>
      <trkpt lat="43.63684" lon="7.02677">
        <ele>234.27</ele>
        <time>2017-05-09T15:49:31.000Z</time>
      </trkpt>
      <trkpt lat="43.63694" lon="7.02669">
        <ele>233.11</ele>
        <time>2017-05-09T15:49:33.000Z</time>
      </trkpt>
      <trkpt lat="43.63707" lon="7.02665">
        <ele>231.65</ele>
        <time>2017-05-09T15:49:35.000Z</time>
      </trkpt>
      <trkpt lat="43.63721" lon="7.02658">
        <ele>229.31</ele>
        <time>2017-05-09T15:49:37.000Z</time>
      </trkpt>
      <trkpt lat="43.63733" lon="7.02653">
        <ele>227.53</ele>
        <time>2017-05-09T15:49:39.000Z</time>
      </trkpt>
      <trkpt lat="43.63745" lon="7.02649">
        <ele>226.43</ele>
        <time>2017-05-09T15:49:41.000Z</time>
      </trkpt>
      <trkpt lat="43.63754" lon="7.02647">
        <ele>224.86</ele>
        <time>2017-05-09T15:49:43.000Z</time>
      </trkpt>
      <trkpt lat="43.63766" lon="7.02642">
        <ele>223.54</ele>
        <time>2017-05-09T15:49:46.000Z</time>
      </trkpt>
      <trkpt lat="43.63775" lon="7.02637">
        <ele>223.32</ele>
        <time>2017-05-09T15:49:48.000Z</time>
      </trkpt>
      <trkpt lat="43.63788" lon="7.02631">
        <ele>222.61</ele>
        <time>2017-05-09T15:49:51.000Z</time>
      </trkpt>
      <trkpt lat="43.63797" lon="7.02626">
        <ele>222.53</ele>
        <time>2017-05-09T15:49:53.000Z</time>
      </trkpt>
      <trkpt lat="43.63805" lon="7.02622">
        <ele>222.47</ele>
        <time>2017-05-09T15:49:55.000Z</time>
      </trkpt>
      <trkpt lat="43.63817" lon="7.02621">
        <ele>222.15</ele>
        <time>2017-05-09T15:49:59.000Z</time>
      </trkpt>
      <trkpt lat="43.63822" lon="7.02635">
        <ele>221.8</ele>
        <time>2017-05-09T15:50:02.000Z</time>
      </trkpt>
      <trkpt lat="43.6382" lon="7.02648">
        <ele>221.52</ele>
        <time>2017-05-09T15:50:05.000Z</time>
      </trkpt>
      <trkpt lat="43.63812" lon="7.02664">
        <ele>221.19</ele>
        <time>2017-05-09T15:50:08.000Z</time>
      </trkpt>
      <trkpt lat="43.63805" lon="7.02675">
        <ele>219.21</ele>
        <time>2017-05-09T15:50:10.000Z</time>
      </trkpt>
      <trkpt lat="43.63799" lon="7.02686">
        <ele>218.94</ele>
        <time>2017-05-09T15:50:12.000Z</time>
      </trkpt>
      <trkpt lat="43.63797" lon="7.02699">
        <ele>218.42</ele>
        <time>2017-05-09T15:50:15.000Z</time>
      </trkpt>
      <trkpt lat="43.63796" lon="7.02713">
        <ele>216.43</ele>
        <time>2017-05-09T15:50:18.000Z</time>
      </trkpt>
      <trkpt lat="43.63804" lon="7.0272">
        <ele>212.56</ele>
        <time>2017-05-09T15:50:22.000Z</time>
      </trkpt>
      <trkpt lat="43.6381" lon="7.0271">
        <ele>212.17</ele>
        <time>2017-05-09T15:50:26.000Z</time>
      </trkpt>
      <trkpt lat="43.63814" lon="7.02695">
        <ele>211.7</ele>
        <time>2017-05-09T15:50:29.000Z</time>
      </trkpt>
      <trkpt lat="43.6382" lon="7.02683">
        <ele>208.1</ele>
        <time>2017-05-09T15:50:31.000Z</time>
      </trkpt>
      <trkpt lat="43.63827" lon="7.0267">
        <ele>205.42</ele>
        <time>2017-05-09T15:50:33.000Z</time>
      </trkpt>
      <trkpt lat="43.63839" lon="7.0266">
        <ele>203.61</ele>
        <time>2017-05-09T15:50:35.000Z</time>
      </trkpt>
      <trkpt lat="43.63851" lon="7.02658">
        <ele>202.21</ele>
        <time>2017-05-09T15:50:37.000Z</time>
      </trkpt>
      <trkpt lat="43.6386" lon="7.02665">
        <ele>201.3</ele>
        <time>2017-05-09T15:50:39.000Z</time>
      </trkpt>
      <trkpt lat="43.63866" lon="7.02676">
        <ele>200.85</ele>
        <time>2017-05-09T15:50:41.000Z</time>
      </trkpt>
      <trkpt lat="43.63867" lon="7.0269">
        <ele>199.85</ele>
        <time>2017-05-09T15:50:43.000Z</time>
      </trkpt>
      <trkpt lat="43.63864" lon="7.02707">
        <ele>199.8</ele>
        <time>2017-05-09T15:50:46.000Z</time>
      </trkpt>
      <trkpt lat="43.63865" lon="7.02723">
        <ele>199.79</ele>
        <time>2017-05-09T15:50:49.000Z</time>
      </trkpt>
      <trkpt lat="43.63874" lon="7.02723">
        <ele>200.05</ele>
        <time>2017-05-09T15:50:52.000Z</time>
      </trkpt>
      <trkpt lat="43.63873" lon="7.02708">
        <ele>200.3</ele>
        <time>2017-05-09T15:50:55.000Z</time>
      </trkpt>
      <trkpt lat="43.63877" lon="7.02693">
        <ele>200.89</ele>
        <time>2017-05-09T15:50:58.000Z</time>
      </trkpt>
      <trkpt lat="43.63884" lon="7.02683">
        <ele>201</ele>
        <time>2017-05-09T15:51:01.000Z</time>
      </trkpt>
      <trkpt lat="43.63892" lon="7.02673">
        <ele>201.23</ele>
        <time>2017-05-09T15:51:04.000Z</time>
      </trkpt>
      <trkpt lat="43.63902" lon="7.02663">
        <ele>201.65</ele>
        <time>2017-05-09T15:51:08.000Z</time>
      </trkpt>
      <trkpt lat="43.6391" lon="7.02655">
        <ele>202.07</ele>
        <time>2017-05-09T15:51:11.000Z</time>
      </trkpt>
      <trkpt lat="43.63917" lon="7.02647">
        <ele>202.36</ele>
        <time>2017-05-09T15:51:14.000Z</time>
      </trkpt>
      <trkpt lat="43.63926" lon="7.02637">
        <ele>202.77</ele>
        <time>2017-05-09T15:51:18.000Z</time>
      </trkpt>
      <trkpt lat="43.63936" lon="7.0263">
        <ele>203.26</ele>
        <time>2017-05-09T15:51:21.000Z</time>
      </trkpt>
      <trkpt lat="43.63946" lon="7.02623">
        <ele>203.76</ele>
        <time>2017-05-09T15:51:25.000Z</time>
      </trkpt>
      <trkpt lat="43.63955" lon="7.02616">
        <ele>204.22</ele>
        <time>2017-05-09T15:51:30.000Z</time>
      </trkpt>
      <trkpt lat="43.63967" lon="7.02608">
        <ele>204.73</ele>
        <time>2017-05-09T15:51:33.000Z</time>
      </trkpt>
      <trkpt lat="43.63975" lon="7.02601">
        <ele>205.58</ele>
        <time>2017-05-09T15:51:37.000Z</time>
      </trkpt>
      <trkpt lat="43.63984" lon="7.02595">
        <ele>206.46</ele>
        <time>2017-05-09T15:51:40.000Z</time>
      </trkpt>
      <trkpt lat="43.63992" lon="7.02587">
        <ele>207.25</ele>
        <time>2017-05-09T15:51:43.000Z</time>
      </trkpt>
      <trkpt lat="43.64004" lon="7.02583">
        <ele>208.12</ele>
        <time>2017-05-09T15:51:46.000Z</time>
      </trkpt>
      <trkpt lat="43.64013" lon="7.02577">
        <ele>209</ele>
        <time>2017-05-09T15:51:49.000Z</time>
      </trkpt>
      <trkpt lat="43.64024" lon="7.02572">
        <ele>210.1</ele>
        <time>2017-05-09T15:51:53.000Z</time>
      </trkpt>
      <trkpt lat="43.64034" lon="7.02571">
        <ele>211.05</ele>
        <time>2017-05-09T15:51:56.000Z</time>
      </trkpt>
      <trkpt lat="43.64045" lon="7.02572">
        <ele>212.18</ele>
        <time>2017-05-09T15:51:59.000Z</time>
      </trkpt>
      <trkpt lat="43.64055" lon="7.02572">
        <ele>213.22</ele>
        <time>2017-05-09T15:52:02.000Z</time>
      </trkpt>
      <trkpt lat="43.64066" lon="7.02568">
        <ele>214.46</ele>
        <time>2017-05-09T15:52:05.000Z</time>
      </trkpt>
      <trkpt lat="43.64076" lon="7.02568">
        <ele>215.89</ele>
        <time>2017-05-09T15:52:09.000Z</time>
      </trkpt>
      <trkpt lat="43.64085" lon="7.02569">
        <ele>216.7</ele>
        <time>2017-05-09T15:52:12.000Z</time>
      </trkpt>
      <trkpt lat="43.64094" lon="7.02569">
        <ele>217.82</ele>
        <time>2017-05-09T15:52:15.000Z</time>
      </trkpt>
      <trkpt lat="43.64104" lon="7.02569">
        <ele>219.46</ele>
        <time>2017-05-09T15:52:19.000Z</time>
      </trkpt>
      <trkpt lat="43.64114" lon="7.02568">
        <ele>221.14</ele>
        <time>2017-05-09T15:52:23.000Z</time>
      </trkpt>
      <trkpt lat="43.64124" lon="7.02569">
        <ele>223.06</ele>
        <time>2017-05-09T15:52:27.000Z</time>
      </trkpt>
      <trkpt lat="43.64133" lon="7.02568">
        <ele>224.7</ele>
        <time>2017-05-09T15:52:31.000Z</time>
      </trkpt>
      <trkpt lat="43.64144" lon="7.02567">
        <ele>226.24</ele>
        <time>2017-05-09T15:52:35.000Z</time>
      </trkpt>
      <trkpt lat="43.64153" lon="7.02575">
        <ele>228.01</ele>
        <time>2017-05-09T15:52:39.000Z</time>
      </trkpt>
      <trkpt lat="43.6415" lon="7.0259">
        <ele>236.95</ele>
        <time>2017-05-09T15:52:41.000Z</time>
      </trkpt>
      <trkpt lat="43.64146" lon="7.02607">
        <ele>241.66</ele>
        <time>2017-05-09T15:52:43.000Z</time>
      </trkpt>
      <trkpt lat="43.64138" lon="7.02625">
        <ele>243.2</ele>
        <time>2017-05-09T15:52:45.000Z</time>
      </trkpt>
      <trkpt lat="43.64132" lon="7.02642">
        <ele>242.93</ele>
        <time>2017-05-09T15:52:47.000Z</time>
      </trkpt>
      <trkpt lat="43.64125" lon="7.02659">
        <ele>241.47</ele>
        <time>2017-05-09T15:52:49.000Z</time>
      </trkpt>
      <trkpt lat="43.64117" lon="7.02675">
        <ele>240.54</ele>
        <time>2017-05-09T15:52:51.000Z</time>
      </trkpt>
      <trkpt lat="43.64111" lon="7.02689">
        <ele>240.27</ele>
        <time>2017-05-09T15:52:53.000Z</time>
      </trkpt>
      <trkpt lat="43.64106" lon="7.027">
        <ele>241.08</ele>
        <time>2017-05-09T15:52:55.000Z</time>
      </trkpt>
      <trkpt lat="43.64101" lon="7.02711">
        <ele>241.37</ele>
        <time>2017-05-09T15:52:57.000Z</time>
      </trkpt>
      <trkpt lat="43.64095" lon="7.02722">
        <ele>241.45</ele>
        <time>2017-05-09T15:52:59.000Z</time>
      </trkpt>
      <trkpt lat="43.64088" lon="7.02736">
        <ele>241.52</ele>
        <time>2017-05-09T15:53:02.000Z</time>
      </trkpt>
      <trkpt lat="43.64082" lon="7.0275">
        <ele>241.25</ele>
        <time>2017-05-09T15:53:05.000Z</time>
      </trkpt>
      <trkpt lat="43.64078" lon="7.02764">
        <ele>241.07</ele>
        <time>2017-05-09T15:53:08.000Z</time>
      </trkpt>
      <trkpt lat="43.64075" lon="7.02776">
        <ele>241.02</ele>
        <time>2017-05-09T15:53:10.000Z</time>
      </trkpt>
      <trkpt lat="43.64071" lon="7.0279">
        <ele>242.18</ele>
        <time>2017-05-09T15:53:13.000Z</time>
      </trkpt>
      <trkpt lat="43.64066" lon="7.02803">
        <ele>242.92</ele>
        <time>2017-05-09T15:53:15.000Z</time>
      </trkpt>
      <trkpt lat="43.64061" lon="7.02815">
        <ele>244.98</ele>
        <time>2017-05-09T15:53:17.000Z</time>
      </trkpt>
      <trkpt lat="43.64053" lon="7.02829">
        <ele>246.43</ele>
        <time>2017-05-09T15:53:20.000Z</time>
      </trkpt>
      <trkpt lat="43.64046" lon="7.02846">
        <ele>248.49</ele>
        <time>2017-05-09T15:53:23.000Z</time>
      </trkpt>
      <trkpt lat="43.6404" lon="7.02858">
        <ele>249.39</ele>
        <time>2017-05-09T15:53:25.000Z</time>
      </trkpt>
      <trkpt lat="43.64035" lon="7.02872">
        <ele>248.43</ele>
        <time>2017-05-09T15:53:27.000Z</time>
      </trkpt>
      <trkpt lat="43.64029" lon="7.02886">
        <ele>248.29</ele>
        <time>2017-05-09T15:53:29.000Z</time>
      </trkpt>
      <trkpt lat="43.64024" lon="7.02898">
        <ele>248.34</ele>
        <time>2017-05-09T15:53:31.000Z</time>
      </trkpt>
      <trkpt lat="43.64021" lon="7.02913">
        <ele>246.8</ele>
        <time>2017-05-09T15:53:34.000Z</time>
      </trkpt>
      <trkpt lat="43.64016" lon="7.02929">
        <ele>246.54</ele>
        <time>2017-05-09T15:53:37.000Z</time>
      </trkpt>
      <trkpt lat="43.64011" lon="7.02942">
        <ele>246.6</ele>
        <time>2017-05-09T15:53:40.000Z</time>
      </trkpt>
      <trkpt lat="43.64005" lon="7.02958">
        <ele>247.09</ele>
        <time>2017-05-09T15:53:43.000Z</time>
      </trkpt>
      <trkpt lat="43.63999" lon="7.02969">
        <ele>247.62</ele>
        <time>2017-05-09T15:53:45.000Z</time>
      </trkpt>
      <trkpt lat="43.63991" lon="7.02985">
        <ele>250.56</ele>
        <time>2017-05-09T15:53:48.000Z</time>
      </trkpt>
      <trkpt lat="43.63986" lon="7.02998">
        <ele>252.62</ele>
        <time>2017-05-09T15:53:51.000Z</time>
      </trkpt>
      <trkpt lat="43.63979" lon="7.03013">
        <ele>252.76</ele>
        <time>2017-05-09T15:53:54.000Z</time>
      </trkpt>
      <trkpt lat="43.63974" lon="7.03028">
        <ele>252.87</ele>
        <time>2017-05-09T15:53:57.000Z</time>
      </trkpt>
      <trkpt lat="43.63969" lon="7.03043">
        <ele>252.67</ele>
        <time>2017-05-09T15:54:00.000Z</time>
      </trkpt>
      <trkpt lat="43.63969" lon="7.03061">
        <ele>251.25</ele>
        <time>2017-05-09T15:54:03.000Z</time>
      </trkpt>
      <trkpt lat="43.63966" lon="7.0308">
        <ele>249.86</ele>
        <time>2017-05-09T15:54:06.000Z</time>
      </trkpt>
      <trkpt lat="43.63965" lon="7.03093">
        <ele>247.87</ele>
        <time>2017-05-09T15:54:08.000Z</time>
      </trkpt>
      <trkpt lat="43.6397" lon="7.0311">
        <ele>248.23</ele>
        <time>2017-05-09T15:54:11.000Z</time>
      </trkpt>
      <trkpt lat="43.63974" lon="7.03126">
        <ele>249.86</ele>
        <time>2017-05-09T15:54:13.000Z</time>
      </trkpt>
      <trkpt lat="43.63981" lon="7.03134">
        <ele>250.41</ele>
        <time>2017-05-09T15:54:15.000Z</time>
      </trkpt>
      <trkpt lat="43.63991" lon="7.03139">
        <ele>249.65</ele>
        <time>2017-05-09T15:54:17.000Z</time>
      </trkpt>
      <trkpt lat="43.63999" lon="7.03144">
        <ele>248.88</ele>
        <time>2017-05-09T15:54:19.000Z</time>
      </trkpt>
      <trkpt lat="43.6401" lon="7.03157">
        <ele>249.33</ele>
        <time>2017-05-09T15:54:22.000Z</time>
      </trkpt>
      <trkpt lat="43.64006" lon="7.03169">
        <ele>248.66</ele>
        <time>2017-05-09T15:54:24.000Z</time>
      </trkpt>
      <trkpt lat="43.64002" lon="7.03182">
        <ele>248.48</ele>
        <time>2017-05-09T15:54:26.000Z</time>
      </trkpt>
      <trkpt lat="43.64001" lon="7.03195">
        <ele>248.18</ele>
        <time>2017-05-09T15:54:28.000Z</time>
      </trkpt>
      <trkpt lat="43.64" lon="7.03216">
        <ele>248.93</ele>
        <time>2017-05-09T15:54:31.000Z</time>
      </trkpt>
      <trkpt lat="43.63999" lon="7.03231">
        <ele>247.83</ele>
        <time>2017-05-09T15:54:33.000Z</time>
      </trkpt>
      <trkpt lat="43.63998" lon="7.03245">
        <ele>247.21</ele>
        <time>2017-05-09T15:54:35.000Z</time>
      </trkpt>
      <trkpt lat="43.64005" lon="7.03254">
        <ele>246.83</ele>
        <time>2017-05-09T15:54:39.000Z</time>
      </trkpt>
      <trkpt lat="43.64014" lon="7.0326">
        <ele>246.42</ele>
        <time>2017-05-09T15:54:41.000Z</time>
      </trkpt>
      <trkpt lat="43.64026" lon="7.03266">
        <ele>244.96</ele>
        <time>2017-05-09T15:54:42.999Z</time>
      </trkpt>
      <trkpt lat="43.64043" lon="7.03274">
        <ele>242.55</ele>
        <time>2017-05-09T15:54:44.999Z</time>
      </trkpt>
      <trkpt lat="43.64059" lon="7.03283">
        <ele>241.81</ele>
        <time>2017-05-09T15:54:46.999Z</time>
      </trkpt>
      <trkpt lat="43.64068" lon="7.03288">
        <ele>241.2</ele>
        <time>2017-05-09T15:54:47.999Z</time>
      </trkpt>
      <trkpt lat="43.64083" lon="7.03295">
        <ele>239.92</ele>
        <time>2017-05-09T15:54:49.999Z</time>
      </trkpt>
      <trkpt lat="43.64097" lon="7.03301">
        <ele>238.71</ele>
        <time>2017-05-09T15:54:51.999Z</time>
      </trkpt>
      <trkpt lat="43.64111" lon="7.03306">
        <ele>237.71</ele>
        <time>2017-05-09T15:54:53.999Z</time>
      </trkpt>
      <trkpt lat="43.64122" lon="7.0331">
        <ele>238.31</ele>
        <time>2017-05-09T15:54:55.999Z</time>
      </trkpt>
      <trkpt lat="43.64127" lon="7.03321">
        <ele>238.98</ele>
        <time>2017-05-09T15:54:59.999Z</time>
      </trkpt>
      <trkpt lat="43.64128" lon="7.03336">
        <ele>238.64</ele>
        <time>2017-05-09T15:55:01.999Z</time>
      </trkpt>
      <trkpt lat="43.64128" lon="7.03351">
        <ele>236.38</ele>
        <time>2017-05-09T15:55:03.999Z</time>
      </trkpt>
      <trkpt lat="43.64128" lon="7.03365">
        <ele>235.45</ele>
        <time>2017-05-09T15:55:05.999Z</time>
      </trkpt>
      <trkpt lat="43.64125" lon="7.03382">
        <ele>235.56</ele>
        <time>2017-05-09T15:55:07.999Z</time>
      </trkpt>
      <trkpt lat="43.64121" lon="7.03399">
        <ele>235.92</ele>
        <time>2017-05-09T15:55:09.999Z</time>
      </trkpt>
      <trkpt lat="43.64118" lon="7.03416">
        <ele>236.39</ele>
        <time>2017-05-09T15:55:11.999Z</time>
      </trkpt>
      <trkpt lat="43.64114" lon="7.03432">
        <ele>236.77</ele>
        <time>2017-05-09T15:55:13.999Z</time>
      </trkpt>
      <trkpt lat="43.64111" lon="7.03449">
        <ele>237.78</ele>
        <time>2017-05-09T15:55:15.999Z</time>
      </trkpt>
      <trkpt lat="43.64109" lon="7.03465">
        <ele>236.72</ele>
        <time>2017-05-09T15:55:17.999Z</time>
      </trkpt>
      <trkpt lat="43.6411" lon="7.03481">
        <ele>234.06</ele>
        <time>2017-05-09T15:55:19.999Z</time>
      </trkpt>
      <trkpt lat="43.6412" lon="7.03488">
        <ele>231.13</ele>
        <time>2017-05-09T15:55:22.999Z</time>
      </trkpt>
      <trkpt lat="43.64131" lon="7.03487">
        <ele>230.04</ele>
        <time>2017-05-09T15:55:25.999Z</time>
      </trkpt>
      <trkpt lat="43.64145" lon="7.03484">
        <ele>230.71</ele>
        <time>2017-05-09T15:55:29.999Z</time>
      </trkpt>
      <trkpt lat="43.64154" lon="7.03483">
        <ele>230.87</ele>
        <time>2017-05-09T15:55:31.999Z</time>
      </trkpt>
      <trkpt lat="43.64165" lon="7.03484">
        <ele>232.64</ele>
        <time>2017-05-09T15:55:34.999Z</time>
      </trkpt>
      <trkpt lat="43.64174" lon="7.03485">
        <ele>233.08</ele>
        <time>2017-05-09T15:55:37.999Z</time>
      </trkpt>
      <trkpt lat="43.64186" lon="7.03487">
        <ele>231.37</ele>
        <time>2017-05-09T15:55:40.999Z</time>
      </trkpt>
      <trkpt lat="43.64196" lon="7.03488">
        <ele>230.34</ele>
        <time>2017-05-09T15:55:43.999Z</time>
      </trkpt>
      <trkpt lat="43.64206" lon="7.0349">
        <ele>230.39</ele>
        <time>2017-05-09T15:55:46.999Z</time>
      </trkpt>
      <trkpt lat="43.64217" lon="7.03493">
        <ele>230.55</ele>
        <time>2017-05-09T15:55:49.999Z</time>
      </trkpt>
      <trkpt lat="43.64226" lon="7.035">
        <ele>230.82</ele>
        <time>2017-05-09T15:55:52.999Z</time>
      </trkpt>
      <trkpt lat="43.64234" lon="7.03494">
        <ele>231.33</ele>
        <time>2017-05-09T15:55:58.999Z</time>
      </trkpt>
      <trkpt lat="43.64241" lon="7.03486">
        <ele>231.69</ele>
        <time>2017-05-09T15:56:01.999Z</time>
      </trkpt>
      <trkpt lat="43.64252" lon="7.03489">
        <ele>232.08</ele>
        <time>2017-05-09T15:56:04.999Z</time>
      </trkpt>
      <trkpt lat="43.64261" lon="7.03495">
        <ele>232.17</ele>
        <time>2017-05-09T15:56:07.999Z</time>
      </trkpt>
      <trkpt lat="43.6427" lon="7.03496">
        <ele>233.37</ele>
        <time>2017-05-09T15:56:10.999Z</time>
      </trkpt>
      <trkpt lat="43.64274" lon="7.03481">
        <ele>234.19</ele>
        <time>2017-05-09T15:56:14.999Z</time>
      </trkpt>
      <trkpt lat="43.64277" lon="7.03468">
        <ele>234.46</ele>
        <time>2017-05-09T15:56:17.999Z</time>
      </trkpt>
      <trkpt lat="43.64282" lon="7.03456">
        <ele>234.44</ele>
        <time>2017-05-09T15:56:19.999Z</time>
      </trkpt>
      <trkpt lat="43.64288" lon="7.03445">
        <ele>233.8</ele>
        <time>2017-05-09T15:56:21.999Z</time>
      </trkpt>
      <trkpt lat="43.64295" lon="7.0343">
        <ele>232.11</ele>
        <time>2017-05-09T15:56:24.999Z</time>
      </trkpt>
      <trkpt lat="43.64302" lon="7.03415">
        <ele>231.15</ele>
        <time>2017-05-09T15:56:27.999Z</time>
      </trkpt>
      <trkpt lat="43.64306" lon="7.03402">
        <ele>230.53</ele>
        <time>2017-05-09T15:56:30.999Z</time>
      </trkpt>
      <trkpt lat="43.64315" lon="7.03392">
        <ele>230.15</ele>
        <time>2017-05-09T15:56:33.999Z</time>
      </trkpt>
      <trkpt lat="43.64325" lon="7.03389">
        <ele>230.37</ele>
        <time>2017-05-09T15:56:35.999Z</time>
      </trkpt>
      <trkpt lat="43.64335" lon="7.0339">
        <ele>230.8</ele>
        <time>2017-05-09T15:56:38.999Z</time>
      </trkpt>
      <trkpt lat="43.64344" lon="7.03392">
        <ele>231.68</ele>
        <time>2017-05-09T15:56:41.999Z</time>
      </trkpt>
      <trkpt lat="43.64354" lon="7.03394">
        <ele>232.67</ele>
        <time>2017-05-09T15:56:44.999Z</time>
      </trkpt>
      <trkpt lat="43.64363" lon="7.03393">
        <ele>237.41</ele>
        <time>2017-05-09T15:56:48.999Z</time>
      </trkpt>
      <trkpt lat="43.6437" lon="7.03383">
        <ele>241.63</ele>
        <time>2017-05-09T15:56:52.999Z</time>
      </trkpt>
      <trkpt lat="43.64377" lon="7.03375">
        <ele>241.67</ele>
        <time>2017-05-09T15:56:54.999Z</time>
      </trkpt>
      <trkpt lat="43.64384" lon="7.0336">
        <ele>243.1</ele>
        <time>2017-05-09T15:56:57.999Z</time>
      </trkpt>
      <trkpt lat="43.64391" lon="7.03345">
        <ele>245.3</ele>
        <time>2017-05-09T15:57:00.999Z</time>
      </trkpt>
      <trkpt lat="43.64397" lon="7.03335">
        <ele>245.43</ele>
        <time>2017-05-09T15:57:02.999Z</time>
      </trkpt>
      <trkpt lat="43.64403" lon="7.03323">
        <ele>245.04</ele>
        <time>2017-05-09T15:57:05.999Z</time>
      </trkpt>
      <trkpt lat="43.64409" lon="7.03306">
        <ele>246.26</ele>
        <time>2017-05-09T15:57:08.999Z</time>
      </trkpt>
      <trkpt lat="43.64411" lon="7.03292">
        <ele>245.84</ele>
        <time>2017-05-09T15:57:10.999Z</time>
      </trkpt>
      <trkpt lat="43.64418" lon="7.03274">
        <ele>244.91</ele>
        <time>2017-05-09T15:57:12.999Z</time>
      </trkpt>
      <trkpt lat="43.64425" lon="7.03256">
        <ele>244.79</ele>
        <time>2017-05-09T15:57:14.999Z</time>
      </trkpt>
      <trkpt lat="43.64433" lon="7.03236">
        <ele>244.04</ele>
        <time>2017-05-09T15:57:16.999Z</time>
      </trkpt>
      <trkpt lat="43.64439" lon="7.03215">
        <ele>243.1</ele>
        <time>2017-05-09T15:57:18.999Z</time>
      </trkpt>
      <trkpt lat="43.64444" lon="7.03196">
        <ele>241.71</ele>
        <time>2017-05-09T15:57:20.999Z</time>
      </trkpt>
      <trkpt lat="43.6445" lon="7.03178">
        <ele>239.8</ele>
        <time>2017-05-09T15:57:22.999Z</time>
      </trkpt>
      <trkpt lat="43.64455" lon="7.03158">
        <ele>238.55</ele>
        <time>2017-05-09T15:57:24.999Z</time>
      </trkpt>
      <trkpt lat="43.6446" lon="7.03142">
        <ele>239.74</ele>
        <time>2017-05-09T15:57:26.999Z</time>
      </trkpt>
      <trkpt lat="43.64463" lon="7.0313">
        <ele>240.83</ele>
        <time>2017-05-09T15:57:28.999Z</time>
      </trkpt>
      <trkpt lat="43.64468" lon="7.03115">
        <ele>241.18</ele>
        <time>2017-05-09T15:57:30.999Z</time>
      </trkpt>
      <trkpt lat="43.64472" lon="7.031">
        <ele>241.62</ele>
        <time>2017-05-09T15:57:32.999Z</time>
      </trkpt>
      <trkpt lat="43.64477" lon="7.03083">
        <ele>240.04</ele>
        <time>2017-05-09T15:57:34.999Z</time>
      </trkpt>
      <trkpt lat="43.64482" lon="7.03067">
        <ele>239.11</ele>
        <time>2017-05-09T15:57:36.999Z</time>
      </trkpt>
      <trkpt lat="43.64486" lon="7.03052">
        <ele>237.29</ele>
        <time>2017-05-09T15:57:38.999Z</time>
      </trkpt>
      <trkpt lat="43.64492" lon="7.03041">
        <ele>237.17</ele>
        <time>2017-05-09T15:57:40.999Z</time>
      </trkpt>
      <trkpt lat="43.64501" lon="7.03043">
        <ele>236.72</ele>
        <time>2017-05-09T15:57:43.999Z</time>
      </trkpt>
      <trkpt lat="43.64512" lon="7.03041">
        <ele>237.15</ele>
        <time>2017-05-09T15:57:46.999Z</time>
      </trkpt>
      <trkpt lat="43.6452" lon="7.03027">
        <ele>236.88</ele>
        <time>2017-05-09T15:57:49.999Z</time>
      </trkpt>
      <trkpt lat="43.64527" lon="7.03016">
        <ele>237.17</ele>
        <time>2017-05-09T15:57:51.999Z</time>
      </trkpt>
      <trkpt lat="43.64532" lon="7.03004">
        <ele>237.79</ele>
        <time>2017-05-09T15:57:53.999Z</time>
      </trkpt>
      <trkpt lat="43.64537" lon="7.02992">
        <ele>237.79</ele>
        <time>2017-05-09T15:57:55.999Z</time>
      </trkpt>
      <trkpt lat="43.64544" lon="7.0298">
        <ele>238.43</ele>
        <time>2017-05-09T15:57:58.999Z</time>
      </trkpt>
      <trkpt lat="43.64553" lon="7.02977">
        <ele>239.26</ele>
        <time>2017-05-09T15:58:00.999Z</time>
      </trkpt>
      <trkpt lat="43.64563" lon="7.02977">
        <ele>240</ele>
        <time>2017-05-09T15:58:02.999Z</time>
      </trkpt>
      <trkpt lat="43.64579" lon="7.02979">
        <ele>241.34</ele>
        <time>2017-05-09T15:58:04.999Z</time>
      </trkpt>
      <trkpt lat="43.64595" lon="7.02982">
        <ele>240.79</ele>
        <time>2017-05-09T15:58:06.999Z</time>
      </trkpt>
      <trkpt lat="43.6461" lon="7.02986">
        <ele>239.36</ele>
        <time>2017-05-09T15:58:08.999Z</time>
      </trkpt>
      <trkpt lat="43.64623" lon="7.02991">
        <ele>238.45</ele>
        <time>2017-05-09T15:58:10.999Z</time>
      </trkpt>
      <trkpt lat="43.64636" lon="7.02994">
        <ele>237.25</ele>
        <time>2017-05-09T15:58:12.999Z</time>
      </trkpt>
      <trkpt lat="43.64647" lon="7.02997">
        <ele>236.15</ele>
        <time>2017-05-09T15:58:14.999Z</time>
      </trkpt>
      <trkpt lat="43.64661" lon="7.02998">
        <ele>235.29</ele>
        <time>2017-05-09T15:58:16.999Z</time>
      </trkpt>
      <trkpt lat="43.64675" lon="7.02998">
        <ele>234.83</ele>
        <time>2017-05-09T15:58:18.999Z</time>
      </trkpt>
      <trkpt lat="43.64689" lon="7.02999">
        <ele>235.14</ele>
        <time>2017-05-09T15:58:20.999Z</time>
      </trkpt>
      <trkpt lat="43.64702" lon="7.03001">
        <ele>235.96</ele>
        <time>2017-05-09T15:58:22.999Z</time>
      </trkpt>
      <trkpt lat="43.64712" lon="7.03004">
        <ele>236.03</ele>
        <time>2017-05-09T15:58:25.999Z</time>
      </trkpt>
      <trkpt lat="43.64721" lon="7.03006">
        <ele>236.08</ele>
        <time>2017-05-09T15:58:34.999Z</time>
      </trkpt>
      <trkpt lat="43.64728" lon="7.02997">
        <ele>235.97</ele>
        <time>2017-05-09T15:58:37.999Z</time>
      </trkpt>
      <trkpt lat="43.64735" lon="7.02988">
        <ele>235.56</ele>
        <time>2017-05-09T15:58:40.999Z</time>
      </trkpt>
      <trkpt lat="43.64746" lon="7.02986">
        <ele>235.06</ele>
        <time>2017-05-09T15:58:44.999Z</time>
      </trkpt>
      <trkpt lat="43.64757" lon="7.02987">
        <ele>235.14</ele>
        <time>2017-05-09T15:58:47.999Z</time>
      </trkpt>
      <trkpt lat="43.64769" lon="7.02989">
        <ele>235.23</ele>
        <time>2017-05-09T15:58:50.999Z</time>
      </trkpt>
      <trkpt lat="43.64782" lon="7.02991">
        <ele>234.92</ele>
        <time>2017-05-09T15:58:53.999Z</time>
      </trkpt>
      <trkpt lat="43.64789" lon="7.03">
        <ele>234.77</ele>
        <time>2017-05-09T15:58:55.999Z</time>
      </trkpt>
      <trkpt lat="43.64797" lon="7.03006">
        <ele>234.49</ele>
        <time>2017-05-09T15:58:58.999Z</time>
      </trkpt>
      <trkpt lat="43.6481" lon="7.03003">
        <ele>234.79</ele>
        <time>2017-05-09T15:59:11.999Z</time>
      </trkpt>
      <trkpt lat="43.64821" lon="7.03006">
        <ele>234.68</ele>
        <time>2017-05-09T15:59:14.999Z</time>
      </trkpt>
      <trkpt lat="43.64831" lon="7.03009">
        <ele>234.79</ele>
        <time>2017-05-09T15:59:17.999Z</time>
      </trkpt>
      <trkpt lat="43.64841" lon="7.0301">
        <ele>234.64</ele>
        <time>2017-05-09T15:59:20.999Z</time>
      </trkpt>
      <trkpt lat="43.64854" lon="7.03008">
        <ele>235.15</ele>
        <time>2017-05-09T15:59:23.999Z</time>
      </trkpt>
      <trkpt lat="43.64866" lon="7.03007">
        <ele>235.12</ele>
        <time>2017-05-09T15:59:26.999Z</time>
      </trkpt>
      <trkpt lat="43.64877" lon="7.03007">
        <ele>235.05</ele>
        <time>2017-05-09T15:59:29.999Z</time>
      </trkpt>
      <trkpt lat="43.64888" lon="7.02999">
        <ele>232.57</ele>
        <time>2017-05-09T15:59:32.999Z</time>
      </trkpt>
      <trkpt lat="43.64898" lon="7.03001">
        <ele>232.37</ele>
        <time>2017-05-09T15:59:34.999Z</time>
      </trkpt>
      <trkpt lat="43.64909" lon="7.03002">
        <ele>228.23</ele>
        <time>2017-05-09T15:59:37.999Z</time>
      </trkpt>
      <trkpt lat="43.64919" lon="7.03003">
        <ele>228.5</ele>
        <time>2017-05-09T15:59:39.999Z</time>
      </trkpt>
      <trkpt lat="43.64928" lon="7.03005">
        <ele>228.6</ele>
        <time>2017-05-09T15:59:42.999Z</time>
      </trkpt>
      <trkpt lat="43.64938" lon="7.03005">
        <ele>228.6</ele>
        <time>2017-05-09T15:59:45.999Z</time>
      </trkpt>
      <trkpt lat="43.64948" lon="7.03007">
        <ele>228.76</ele>
        <time>2017-05-09T15:59:50.999Z</time>
      </trkpt>
      <trkpt lat="43.64959" lon="7.03014">
        <ele>228.72</ele>
        <time>2017-05-09T15:59:53.999Z</time>
      </trkpt>
      <trkpt lat="43.64968" lon="7.03018">
        <ele>228.59</ele>
        <time>2017-05-09T15:59:56.999Z</time>
      </trkpt>
      <trkpt lat="43.64979" lon="7.0302">
        <ele>228.54</ele>
        <time>2017-05-09T16:00:00.999Z</time>
      </trkpt>
      <trkpt lat="43.64989" lon="7.03022">
        <ele>228.48</ele>
        <time>2017-05-09T16:00:03.999Z</time>
      </trkpt>
      <trkpt lat="43.65001" lon="7.03019">
        <ele>228.35</ele>
        <time>2017-05-09T16:00:06.999Z</time>
      </trkpt>
      <trkpt lat="43.65014" lon="7.03021">
        <ele>228.28</ele>
        <time>2017-05-09T16:00:09.999Z</time>
      </trkpt>
      <trkpt lat="43.65024" lon="7.03026">
        <ele>228.34</ele>
        <time>2017-05-09T16:00:12.999Z</time>
      </trkpt>
      <trkpt lat="43.65032" lon="7.03035">
        <ele>228.34</ele>
        <time>2017-05-09T16:00:14.999Z</time>
      </trkpt>
      <trkpt lat="43.65038" lon="7.0305">
        <ele>228.37</ele>
        <time>2017-05-09T16:00:16.999Z</time>
      </trkpt>
      <trkpt lat="43.65039" lon="7.03069">
        <ele>226.99</ele>
        <time>2017-05-09T16:00:18.999Z</time>
      </trkpt>
      <trkpt lat="43.6504" lon="7.03084">
        <ele>225.9</ele>
        <time>2017-05-09T16:00:20.999Z</time>
      </trkpt>
      <trkpt lat="43.65041" lon="7.03097">
        <ele>223.98</ele>
        <time>2017-05-09T16:00:22.999Z</time>
      </trkpt>
      <trkpt lat="43.65041" lon="7.03112">
        <ele>223.45</ele>
        <time>2017-05-09T16:00:24.999Z</time>
      </trkpt>
      <trkpt lat="43.6504" lon="7.03125">
        <ele>223.16</ele>
        <time>2017-05-09T16:00:26.999Z</time>
      </trkpt>
      <trkpt lat="43.65042" lon="7.03142">
        <ele>221.85</ele>
        <time>2017-05-09T16:00:29.999Z</time>
      </trkpt>
      <trkpt lat="43.65049" lon="7.03156">
        <ele>220.85</ele>
        <time>2017-05-09T16:00:31.999Z</time>
      </trkpt>
      <trkpt lat="43.65052" lon="7.03171">
        <ele>220.02</ele>
        <time>2017-05-09T16:00:33.999Z</time>
      </trkpt>
      <trkpt lat="43.65054" lon="7.03185">
        <ele>218.86</ele>
        <time>2017-05-09T16:00:35.999Z</time>
      </trkpt>
      <trkpt lat="43.65054" lon="7.03203">
        <ele>218.53</ele>
        <time>2017-05-09T16:00:37.999Z</time>
      </trkpt>
      <trkpt lat="43.65055" lon="7.03217">
        <ele>219.06</ele>
        <time>2017-05-09T16:00:39.999Z</time>
      </trkpt>
      <trkpt lat="43.65054" lon="7.03232">
        <ele>219.83</ele>
        <time>2017-05-09T16:00:41.999Z</time>
      </trkpt>
      <trkpt lat="43.65051" lon="7.03246">
        <ele>221.43</ele>
        <time>2017-05-09T16:00:43.999Z</time>
      </trkpt>
      <trkpt lat="43.65047" lon="7.03259">
        <ele>221.54</ele>
        <time>2017-05-09T16:00:45.999Z</time>
      </trkpt>
      <trkpt lat="43.65044" lon="7.03273">
        <ele>221.95</ele>
        <time>2017-05-09T16:00:47.999Z</time>
      </trkpt>
      <trkpt lat="43.65039" lon="7.03284">
        <ele>222.05</ele>
        <time>2017-05-09T16:00:49.999Z</time>
      </trkpt>
      <trkpt lat="43.65038" lon="7.03304">
        <ele>221</ele>
        <time>2017-05-09T16:00:52.999Z</time>
      </trkpt>
      <trkpt lat="43.65041" lon="7.03315">
        <ele>219.93</ele>
        <time>2017-05-09T16:00:54.999Z</time>
      </trkpt>
      <trkpt lat="43.65042" lon="7.03333">
        <ele>220.12</ele>
        <time>2017-05-09T16:00:57.999Z</time>
      </trkpt>
      <trkpt lat="43.65045" lon="7.03351">
        <ele>219.97</ele>
        <time>2017-05-09T16:01:00.999Z</time>
      </trkpt>
      <trkpt lat="43.65048" lon="7.03363">
        <ele>220.34</ele>
        <time>2017-05-09T16:01:02.999Z</time>
      </trkpt>
      <trkpt lat="43.65052" lon="7.03375">
        <ele>220.67</ele>
        <time>2017-05-09T16:01:04.999Z</time>
      </trkpt>
      <trkpt lat="43.65059" lon="7.0339">
        <ele>219.36</ele>
        <time>2017-05-09T16:01:07.999Z</time>
      </trkpt>
      <trkpt lat="43.65067" lon="7.03405">
        <ele>216.35</ele>
        <time>2017-05-09T16:01:10.999Z</time>
      </trkpt>
      <trkpt lat="43.65075" lon="7.03417">
        <ele>216.75</ele>
        <time>2017-05-09T16:01:13.999Z</time>
      </trkpt>
      <trkpt lat="43.65085" lon="7.03419">
        <ele>217.77</ele>
        <time>2017-05-09T16:01:16.999Z</time>
      </trkpt>
      <trkpt lat="43.65095" lon="7.03409">
        <ele>219.41</ele>
        <time>2017-05-09T16:01:19.999Z</time>
      </trkpt>
      <trkpt lat="43.65101" lon="7.03399">
        <ele>216.95</ele>
        <time>2017-05-09T16:01:22.999Z</time>
      </trkpt>
      <trkpt lat="43.65107" lon="7.03384">
        <ele>215.76</ele>
        <time>2017-05-09T16:01:25.999Z</time>
      </trkpt>
      <trkpt lat="43.6511" lon="7.03369">
        <ele>215.9</ele>
        <time>2017-05-09T16:01:28.999Z</time>
      </trkpt>
      <trkpt lat="43.6511" lon="7.03354">
        <ele>216.03</ele>
        <time>2017-05-09T16:01:31.999Z</time>
      </trkpt>
      <trkpt lat="43.65109" lon="7.03338">
        <ele>216.07</ele>
        <time>2017-05-09T16:01:35.999Z</time>
      </trkpt>
      <trkpt lat="43.65107" lon="7.03326">
        <ele>216.27</ele>
        <time>2017-05-09T16:01:38.999Z</time>
      </trkpt>
      <trkpt lat="43.65109" lon="7.03311">
        <ele>217.62</ele>
        <time>2017-05-09T16:01:41.999Z</time>
      </trkpt>
      <trkpt lat="43.65115" lon="7.033">
        <ele>217.89</ele>
        <time>2017-05-09T16:01:44.999Z</time>
      </trkpt>
      <trkpt lat="43.65125" lon="7.03292">
        <ele>218.4</ele>
        <time>2017-05-09T16:01:48.999Z</time>
      </trkpt>
      <trkpt lat="43.65136" lon="7.03296">
        <ele>219.16</ele>
        <time>2017-05-09T16:01:52.999Z</time>
      </trkpt>
      <trkpt lat="43.65145" lon="7.03306">
        <ele>219.7</ele>
        <time>2017-05-09T16:01:55.999Z</time>
      </trkpt>
      <trkpt lat="43.65155" lon="7.03309">
        <ele>220.49</ele>
        <time>2017-05-09T16:01:59.999Z</time>
      </trkpt>
      <trkpt lat="43.65167" lon="7.03312">
        <ele>221.38</ele>
        <time>2017-05-09T16:02:04.999Z</time>
      </trkpt>
      <trkpt lat="43.65177" lon="7.0331">
        <ele>221.77</ele>
        <time>2017-05-09T16:02:07.999Z</time>
      </trkpt>
      <trkpt lat="43.65186" lon="7.03306">
        <ele>222.77</ele>
        <time>2017-05-09T16:02:10.999Z</time>
      </trkpt>
      <trkpt lat="43.65197" lon="7.03301">
        <ele>223.03</ele>
        <time>2017-05-09T16:02:13.999Z</time>
      </trkpt>
      <trkpt lat="43.65207" lon="7.033">
        <ele>225.95</ele>
        <time>2017-05-09T16:02:15.999Z</time>
      </trkpt>
      <trkpt lat="43.65219" lon="7.03306">
        <ele>227.26</ele>
        <time>2017-05-09T16:02:18.999Z</time>
      </trkpt>
      <trkpt lat="43.6523" lon="7.0331">
        <ele>227.88</ele>
        <time>2017-05-09T16:02:21.999Z</time>
      </trkpt>
      <trkpt lat="43.65241" lon="7.0332">
        <ele>232.43</ele>
        <time>2017-05-09T16:02:24.999Z</time>
      </trkpt>
      <trkpt lat="43.65253" lon="7.0333">
        <ele>235.15</ele>
        <time>2017-05-09T16:02:27.999Z</time>
      </trkpt>
      <trkpt lat="43.65262" lon="7.03339">
        <ele>236.26</ele>
        <time>2017-05-09T16:02:29.999Z</time>
      </trkpt>
      <trkpt lat="43.65272" lon="7.03344">
        <ele>236.77</ele>
        <time>2017-05-09T16:02:31.999Z</time>
      </trkpt>
      <trkpt lat="43.65281" lon="7.03349">
        <ele>236.79</ele>
        <time>2017-05-09T16:02:33.999Z</time>
      </trkpt>
      <trkpt lat="43.65292" lon="7.03348">
        <ele>236.17</ele>
        <time>2017-05-09T16:02:35.999Z</time>
      </trkpt>
      <trkpt lat="43.65303" lon="7.03349">
        <ele>235.22</ele>
        <time>2017-05-09T16:02:37.999Z</time>
      </trkpt>
      <trkpt lat="43.65316" lon="7.03353">
        <ele>233.6</ele>
        <time>2017-05-09T16:02:39.999Z</time>
      </trkpt>
      <trkpt lat="43.65327" lon="7.03358">
        <ele>232.62</ele>
        <time>2017-05-09T16:02:41.999Z</time>
      </trkpt>
      <trkpt lat="43.65337" lon="7.03362">
        <ele>232.61</ele>
        <time>2017-05-09T16:02:43.999Z</time>
      </trkpt>
      <trkpt lat="43.65345" lon="7.03367">
        <ele>232.55</ele>
        <time>2017-05-09T16:02:45.999Z</time>
      </trkpt>
      <trkpt lat="43.65353" lon="7.0338">
        <ele>232.46</ele>
        <time>2017-05-09T16:02:47.999Z</time>
      </trkpt>
      <trkpt lat="43.65355" lon="7.03398">
        <ele>232.29</ele>
        <time>2017-05-09T16:02:50.999Z</time>
      </trkpt>
      <trkpt lat="43.65354" lon="7.03411">
        <ele>230.44</ele>
        <time>2017-05-09T16:02:52.999Z</time>
      </trkpt>
      <trkpt lat="43.65353" lon="7.03427">
        <ele>229.59</ele>
        <time>2017-05-09T16:02:54.999Z</time>
      </trkpt>
      <trkpt lat="43.65354" lon="7.03446">
        <ele>227.92</ele>
        <time>2017-05-09T16:02:57.999Z</time>
      </trkpt>
      <trkpt lat="43.65358" lon="7.03462">
        <ele>227.27</ele>
        <time>2017-05-09T16:03:00.999Z</time>
      </trkpt>
      <trkpt lat="43.65361" lon="7.0348">
        <ele>226.15</ele>
        <time>2017-05-09T16:03:03.999Z</time>
      </trkpt>
      <trkpt lat="43.6536" lon="7.03493">
        <ele>224.41</ele>
        <time>2017-05-09T16:03:05.999Z</time>
      </trkpt>
      <trkpt lat="43.65361" lon="7.03509">
        <ele>222.14</ele>
        <time>2017-05-09T16:03:08.999Z</time>
      </trkpt>
      <trkpt lat="43.65365" lon="7.03522">
        <ele>219.83</ele>
        <time>2017-05-09T16:03:10.999Z</time>
      </trkpt>
      <trkpt lat="43.65369" lon="7.03538">
        <ele>217.78</ele>
        <time>2017-05-09T16:03:12.999Z</time>
      </trkpt>
      <trkpt lat="43.65373" lon="7.03555">
        <ele>218.04</ele>
        <time>2017-05-09T16:03:14.999Z</time>
      </trkpt>
      <trkpt lat="43.65373" lon="7.03571">
        <ele>218.58</ele>
        <time>2017-05-09T16:03:16.999Z</time>
      </trkpt>
      <trkpt lat="43.65375" lon="7.03589">
        <ele>217.65</ele>
        <time>2017-05-09T16:03:18.999Z</time>
      </trkpt>
      <trkpt lat="43.65378" lon="7.03607">
        <ele>216.25</ele>
        <time>2017-05-09T16:03:20.999Z</time>
      </trkpt>
      <trkpt lat="43.65381" lon="7.03619">
        <ele>215.35</ele>
        <time>2017-05-09T16:03:22.999Z</time>
      </trkpt>
      <trkpt lat="43.65387" lon="7.03635">
        <ele>215.39</ele>
        <time>2017-05-09T16:03:24.999Z</time>
      </trkpt>
      <trkpt lat="43.65391" lon="7.03649">
        <ele>215.6</ele>
        <time>2017-05-09T16:03:26.999Z</time>
      </trkpt>
      <trkpt lat="43.65395" lon="7.03662">
        <ele>215.86</ele>
        <time>2017-05-09T16:03:28.999Z</time>
      </trkpt>
      <trkpt lat="43.65398" lon="7.03674">
        <ele>215.66</ele>
        <time>2017-05-09T16:03:30.999Z</time>
      </trkpt>
      <trkpt lat="43.65402" lon="7.03689">
        <ele>216.17</ele>
        <time>2017-05-09T16:03:32.999Z</time>
      </trkpt>
      <trkpt lat="43.65406" lon="7.037">
        <ele>215.31</ele>
        <time>2017-05-09T16:03:34.999Z</time>
      </trkpt>
      <trkpt lat="43.65412" lon="7.03714">
        <ele>213.65</ele>
        <time>2017-05-09T16:03:36.999Z</time>
      </trkpt>
      <trkpt lat="43.65416" lon="7.03735">
        <ele>212.74</ele>
        <time>2017-05-09T16:03:38.999Z</time>
      </trkpt>
      <trkpt lat="43.65423" lon="7.03755">
        <ele>213.08</ele>
        <time>2017-05-09T16:03:40.999Z</time>
      </trkpt>
      <trkpt lat="43.65429" lon="7.03773">
        <ele>213.4</ele>
        <time>2017-05-09T16:03:42.999Z</time>
      </trkpt>
      <trkpt lat="43.65437" lon="7.03783">
        <ele>211.35</ele>
        <time>2017-05-09T16:03:44.999Z</time>
      </trkpt>
      <trkpt lat="43.65449" lon="7.03793">
        <ele>210.71</ele>
        <time>2017-05-09T16:03:47.999Z</time>
      </trkpt>
      <trkpt lat="43.65457" lon="7.038">
        <ele>211.74</ele>
        <time>2017-05-09T16:03:49.999Z</time>
      </trkpt>
      <trkpt lat="43.65466" lon="7.03806">
        <ele>212.06</ele>
        <time>2017-05-09T16:03:52.999Z</time>
      </trkpt>
      <trkpt lat="43.65474" lon="7.03811">
        <ele>212.49</ele>
        <time>2017-05-09T16:03:56.999Z</time>
      </trkpt>
      <trkpt lat="43.65484" lon="7.03811">
        <ele>213.17</ele>
        <time>2017-05-09T16:04:00.999Z</time>
      </trkpt>
      <trkpt lat="43.65493" lon="7.03813">
        <ele>213.62</ele>
        <time>2017-05-09T16:04:04.999Z</time>
      </trkpt>
      <trkpt lat="43.65504" lon="7.03821">
        <ele>214.35</ele>
        <time>2017-05-09T16:04:09.999Z</time>
      </trkpt>
      <trkpt lat="43.65511" lon="7.0383">
        <ele>214.91</ele>
        <time>2017-05-09T16:04:11.999Z</time>
      </trkpt>
      <trkpt lat="43.65519" lon="7.03838">
        <ele>215.69</ele>
        <time>2017-05-09T16:04:14.999Z</time>
      </trkpt>
      <trkpt lat="43.65528" lon="7.03846">
        <ele>216.27</ele>
        <time>2017-05-09T16:04:17.999Z</time>
      </trkpt>
      <trkpt lat="43.65534" lon="7.03857">
        <ele>216.52</ele>
        <time>2017-05-09T16:04:20.999Z</time>
      </trkpt>
      <trkpt lat="43.65539" lon="7.03872">
        <ele>216.47</ele>
        <time>2017-05-09T16:04:23.999Z</time>
      </trkpt>
      <trkpt lat="43.65549" lon="7.03876">
        <ele>215.89</ele>
        <time>2017-05-09T16:04:26.999Z</time>
      </trkpt>
      <trkpt lat="43.65559" lon="7.0388">
        <ele>215.89</ele>
        <time>2017-05-09T16:04:29.999Z</time>
      </trkpt>
      <trkpt lat="43.6557" lon="7.03889">
        <ele>216.33</ele>
        <time>2017-05-09T16:04:32.999Z</time>
      </trkpt>
      <trkpt lat="43.65582" lon="7.03891">
        <ele>216.79</ele>
        <time>2017-05-09T16:04:35.999Z</time>
      </trkpt>
      <trkpt lat="43.65592" lon="7.03897">
        <ele>217.3</ele>
        <time>2017-05-09T16:04:38.999Z</time>
      </trkpt>
      <trkpt lat="43.65603" lon="7.03902">
        <ele>217.94</ele>
        <time>2017-05-09T16:04:41.999Z</time>
      </trkpt>
      <trkpt lat="43.65613" lon="7.03905">
        <ele>219.41</ele>
        <time>2017-05-09T16:04:43.999Z</time>
      </trkpt>
      <trkpt lat="43.65622" lon="7.039">
        <ele>219.67</ele>
        <time>2017-05-09T16:04:46.999Z</time>
      </trkpt>
      <trkpt lat="43.65635" lon="7.03899">
        <ele>220.77</ele>
        <time>2017-05-09T16:04:50.999Z</time>
      </trkpt>
      <trkpt lat="43.65644" lon="7.03901">
        <ele>220.96</ele>
        <time>2017-05-09T16:04:53.999Z</time>
      </trkpt>
      <trkpt lat="43.65656" lon="7.03901">
        <ele>221.15</ele>
        <time>2017-05-09T16:04:56.999Z</time>
      </trkpt>
      <trkpt lat="43.65667" lon="7.03901">
        <ele>221.35</ele>
        <time>2017-05-09T16:04:59.999Z</time>
      </trkpt>
      <trkpt lat="43.65678" lon="7.03901">
        <ele>221.47</ele>
        <time>2017-05-09T16:05:02.999Z</time>
      </trkpt>
      <trkpt lat="43.65688" lon="7.03901">
        <ele>221.66</ele>
        <time>2017-05-09T16:05:05.999Z</time>
      </trkpt>
      <trkpt lat="43.65698" lon="7.03906">
        <ele>222.05</ele>
        <time>2017-05-09T16:05:08.999Z</time>
      </trkpt>
      <trkpt lat="43.65709" lon="7.03899">
        <ele>222.34</ele>
        <time>2017-05-09T16:05:12.999Z</time>
      </trkpt>
      <trkpt lat="43.65719" lon="7.03897">
        <ele>222.33</ele>
        <time>2017-05-09T16:05:16.999Z</time>
      </trkpt>
      <trkpt lat="43.65728" lon="7.03893">
        <ele>222.19</ele>
        <time>2017-05-09T16:05:18.999Z</time>
      </trkpt>
      <trkpt lat="43.65736" lon="7.03887">
        <ele>221.95</ele>
        <time>2017-05-09T16:05:20.999Z</time>
      </trkpt>
      <trkpt lat="43.65746" lon="7.03882">
        <ele>221.84</ele>
        <time>2017-05-09T16:05:22.999Z</time>
      </trkpt>
      <trkpt lat="43.65756" lon="7.03879">
        <ele>221.77</ele>
        <time>2017-05-09T16:05:25.999Z</time>
      </trkpt>
      <trkpt lat="43.65767" lon="7.0388">
        <ele>222.06</ele>
        <time>2017-05-09T16:05:28.999Z</time>
      </trkpt>
      <trkpt lat="43.65776" lon="7.03881">
        <ele>222.32</ele>
        <time>2017-05-09T16:05:30.999Z</time>
      </trkpt>
      <trkpt lat="43.65786" lon="7.03877">
        <ele>222.8</ele>
        <time>2017-05-09T16:05:33.999Z</time>
      </trkpt>
      <trkpt lat="43.65796" lon="7.03876">
        <ele>223.44</ele>
        <time>2017-05-09T16:05:38.999Z</time>
      </trkpt>
      <trkpt lat="43.65805" lon="7.03872">
        <ele>223.6</ele>
        <time>2017-05-09T16:05:40.999Z</time>
      </trkpt>
      <trkpt lat="43.65815" lon="7.03868">
        <ele>224.53</ele>
        <time>2017-05-09T16:05:43.999Z</time>
      </trkpt>
      <trkpt lat="43.65828" lon="7.03863">
        <ele>224.75</ele>
        <time>2017-05-09T16:05:46.999Z</time>
      </trkpt>
      <trkpt lat="43.65841" lon="7.03857">
        <ele>226.12</ele>
        <time>2017-05-09T16:05:49.999Z</time>
      </trkpt>
      <trkpt lat="43.65849" lon="7.03851">
        <ele>226.19</ele>
        <time>2017-05-09T16:05:52.999Z</time>
      </trkpt>
      <trkpt lat="43.65861" lon="7.03843">
        <ele>226.45</ele>
        <time>2017-05-09T16:05:55.999Z</time>
      </trkpt>
      <trkpt lat="43.65869" lon="7.03837">
        <ele>226.98</ele>
        <time>2017-05-09T16:05:59.999Z</time>
      </trkpt>
      <trkpt lat="43.65877" lon="7.03825">
        <ele>227.17</ele>
        <time>2017-05-09T16:06:03.999Z</time>
      </trkpt>
      <trkpt lat="43.65885" lon="7.03813">
        <ele>225.77</ele>
        <time>2017-05-09T16:06:06.999Z</time>
      </trkpt>
      <trkpt lat="43.65891" lon="7.03798">
        <ele>225.33</ele>
        <time>2017-05-09T16:06:09.999Z</time>
      </trkpt>
      <trkpt lat="43.65895" lon="7.03784">
        <ele>225.16</ele>
        <time>2017-05-09T16:06:12.999Z</time>
      </trkpt>
      <trkpt lat="43.65895" lon="7.03772">
        <ele>224.91</ele>
        <time>2017-05-09T16:06:15.999Z</time>
      </trkpt>
      <trkpt lat="43.65895" lon="7.03758">
        <ele>224.77</ele>
        <time>2017-05-09T16:06:19.999Z</time>
      </trkpt>
      <trkpt lat="43.65894" lon="7.03741">
        <ele>224.89</ele>
        <time>2017-05-09T16:06:25.999Z</time>
      </trkpt>
      <trkpt lat="43.65892" lon="7.03728">
        <ele>225.03</ele>
        <time>2017-05-09T16:06:29.999Z</time>
      </trkpt>
      <trkpt lat="43.6589" lon="7.03713">
        <ele>225.66</ele>
        <time>2017-05-09T16:06:34.999Z</time>
      </trkpt>
      <trkpt lat="43.65892" lon="7.03698">
        <ele>226.25</ele>
        <time>2017-05-09T16:06:37.999Z</time>
      </trkpt>
      <trkpt lat="43.65891" lon="7.03683">
        <ele>226.61</ele>
        <time>2017-05-09T16:06:40.999Z</time>
      </trkpt>
      <trkpt lat="43.65889" lon="7.03667">
        <ele>226.71</ele>
        <time>2017-05-09T16:06:44.999Z</time>
      </trkpt>
      <trkpt lat="43.65891" lon="7.03653">
        <ele>226.7</ele>
        <time>2017-05-09T16:06:46.999Z</time>
      </trkpt>
      <trkpt lat="43.65895" lon="7.03643">
        <ele>226.84</ele>
        <time>2017-05-09T16:06:48.999Z</time>
      </trkpt>
      <trkpt lat="43.65905" lon="7.03632">
        <ele>224.68</ele>
        <time>2017-05-09T16:06:51.999Z</time>
      </trkpt>
      <trkpt lat="43.65912" lon="7.03618">
        <ele>222.49</ele>
        <time>2017-05-09T16:06:54.999Z</time>
      </trkpt>
      <trkpt lat="43.65921" lon="7.03604">
        <ele>222.23</ele>
        <time>2017-05-09T16:06:57.999Z</time>
      </trkpt>
      <trkpt lat="43.65928" lon="7.03587">
        <ele>222.66</ele>
        <time>2017-05-09T16:07:00.999Z</time>
      </trkpt>
      <trkpt lat="43.65936" lon="7.03572">
        <ele>223.1</ele>
        <time>2017-05-09T16:07:03.999Z</time>
      </trkpt>
      <trkpt lat="43.65942" lon="7.03558">
        <ele>222.76</ele>
        <time>2017-05-09T16:07:06.999Z</time>
      </trkpt>
      <trkpt lat="43.65948" lon="7.03541">
        <ele>222.07</ele>
        <time>2017-05-09T16:07:09.999Z</time>
      </trkpt>
      <trkpt lat="43.65955" lon="7.03523">
        <ele>221.79</ele>
        <time>2017-05-09T16:07:12.999Z</time>
      </trkpt>
      <trkpt lat="43.65961" lon="7.0351">
        <ele>220.32</ele>
        <time>2017-05-09T16:07:14.999Z</time>
      </trkpt>
      <trkpt lat="43.65969" lon="7.03496">
        <ele>220.29</ele>
        <time>2017-05-09T16:07:17.999Z</time>
      </trkpt>
      <trkpt lat="43.65979" lon="7.03484">
        <ele>220.68</ele>
        <time>2017-05-09T16:07:20.999Z</time>
      </trkpt>
      <trkpt lat="43.65989" lon="7.03481">
        <ele>221.3</ele>
        <time>2017-05-09T16:07:23.999Z</time>
      </trkpt>
      <trkpt lat="43.66002" lon="7.03477">
        <ele>221.58</ele>
        <time>2017-05-09T16:07:26.999Z</time>
      </trkpt>
      <trkpt lat="43.66011" lon="7.03475">
        <ele>221.89</ele>
        <time>2017-05-09T16:07:28.999Z</time>
      </trkpt>
      <trkpt lat="43.6602" lon="7.03474">
        <ele>222.39</ele>
        <time>2017-05-09T16:07:30.999Z</time>
      </trkpt>
      <trkpt lat="43.6603" lon="7.03471">
        <ele>225.91</ele>
        <time>2017-05-09T16:07:33.999Z</time>
      </trkpt>
      <trkpt lat="43.66038" lon="7.03465">
        <ele>226.22</ele>
        <time>2017-05-09T16:07:35.999Z</time>
      </trkpt>
      <trkpt lat="43.66048" lon="7.03459">
        <ele>229.26</ele>
        <time>2017-05-09T16:07:38.999Z</time>
      </trkpt>
      <trkpt lat="43.66056" lon="7.0345">
        <ele>231.88</ele>
        <time>2017-05-09T16:07:40.999Z</time>
      </trkpt>
      <trkpt lat="43.66061" lon="7.03438">
        <ele>231.76</ele>
        <time>2017-05-09T16:07:43.999Z</time>
      </trkpt>
      <trkpt lat="43.66068" lon="7.03426">
        <ele>231.32</ele>
        <time>2017-05-09T16:07:45.999Z</time>
      </trkpt>
      <trkpt lat="43.66077" lon="7.03417">
        <ele>230.89</ele>
        <time>2017-05-09T16:07:47.999Z</time>
      </trkpt>
      <trkpt lat="43.66087" lon="7.0341">
        <ele>230.94</ele>
        <time>2017-05-09T16:07:49.999Z</time>
      </trkpt>
      <trkpt lat="43.66099" lon="7.0341">
        <ele>231.32</ele>
        <time>2017-05-09T16:07:54.999Z</time>
      </trkpt>
      <trkpt lat="43.6611" lon="7.03419">
        <ele>231.59</ele>
        <time>2017-05-09T16:07:57.999Z</time>
      </trkpt>
      <trkpt lat="43.66118" lon="7.0343">
        <ele>231.86</ele>
        <time>2017-05-09T16:08:01.999Z</time>
      </trkpt>
      <trkpt lat="43.66126" lon="7.03437">
        <ele>232.1</ele>
        <time>2017-05-09T16:08:05.999Z</time>
      </trkpt>
      <trkpt lat="43.6613" lon="7.03452">
        <ele>232.15</ele>
        <time>2017-05-09T16:08:11.999Z</time>
      </trkpt>
      <trkpt lat="43.6614" lon="7.03444">
        <ele>231.14</ele>
        <time>2017-05-09T16:08:26.999Z</time>
      </trkpt>
      <trkpt lat="43.66145" lon="7.03463">
        <ele>230.72</ele>
        <time>2017-05-09T16:08:40.999Z</time>
      </trkpt>
      <trkpt lat="43.66149" lon="7.03474">
        <ele>230.65</ele>
        <time>2017-05-09T16:08:44.999Z</time>
      </trkpt>
      <trkpt lat="43.66148" lon="7.03489">
        <ele>230.73</ele>
        <time>2017-05-09T16:08:48.999Z</time>
      </trkpt>
      <trkpt lat="43.66151" lon="7.03504">
        <ele>230.49</ele>
        <time>2017-05-09T16:08:54.999Z</time>
      </trkpt>
      <trkpt lat="43.66155" lon="7.03516">
        <ele>230.4</ele>
        <time>2017-05-09T16:08:57.999Z</time>
      </trkpt>
      <trkpt lat="43.6616" lon="7.03532">
        <ele>230.6</ele>
        <time>2017-05-09T16:09:01.999Z</time>
      </trkpt>
      <trkpt lat="43.66164" lon="7.03543">
        <ele>230.7</ele>
        <time>2017-05-09T16:09:05.999Z</time>
      </trkpt>
      <trkpt lat="43.66169" lon="7.03555">
        <ele>230.28</ele>
        <time>2017-05-09T16:09:10.999Z</time>
      </trkpt>
      <trkpt lat="43.66172" lon="7.03568">
        <ele>230.18</ele>
        <time>2017-05-09T16:09:13.999Z</time>
      </trkpt>
      <trkpt lat="43.66176" lon="7.03579">
        <ele>230.49</ele>
        <time>2017-05-09T16:11:04.999Z</time>
      </trkpt>
      <trkpt lat="43.66177" lon="7.03593">
        <ele>230.74</ele>
        <time>2017-05-09T16:11:08.999Z</time>
      </trkpt>
      <trkpt lat="43.66181" lon="7.03606">
        <ele>230.96</ele>
        <time>2017-05-09T16:11:16.999Z</time>
      </trkpt>
      <trkpt lat="43.66185" lon="7.03618">
        <ele>231.68</ele>
        <time>2017-05-09T16:11:28.999Z</time>
      </trkpt>
      <trkpt lat="43.66187" lon="7.03632">
        <ele>231.89</ele>
        <time>2017-05-09T16:11:33.999Z</time>
      </trkpt>
      <trkpt lat="43.6619" lon="7.03648">
        <ele>231.84</ele>
        <time>2017-05-09T16:11:36.999Z</time>
      </trkpt>
      <trkpt lat="43.66196" lon="7.03661">
        <ele>231.78</ele>
        <time>2017-05-09T16:11:39.999Z</time>
      </trkpt>
      <trkpt lat="43.66199" lon="7.03676">
        <ele>231.9</ele>
        <time>2017-05-09T16:11:42.999Z</time>
      </trkpt>
      <trkpt lat="43.66205" lon="7.03691">
        <ele>231.77</ele>
        <time>2017-05-09T16:11:45.999Z</time>
      </trkpt>
      <trkpt lat="43.66213" lon="7.03699">
        <ele>232.19</ele>
        <time>2017-05-09T16:11:49.999Z</time>
      </trkpt>
      <trkpt lat="43.66222" lon="7.03696">
        <ele>232.57</ele>
        <time>2017-05-09T16:11:53.999Z</time>
      </trkpt>
      <trkpt lat="43.66233" lon="7.03699">
        <ele>232.64</ele>
        <time>2017-05-09T16:11:57.999Z</time>
      </trkpt>
      <trkpt lat="43.6623" lon="7.03717">
        <ele>233.53</ele>
        <time>2017-05-09T16:12:00.999Z</time>
      </trkpt>
      <trkpt lat="43.66225" lon="7.03729">
        <ele>234.28</ele>
        <time>2017-05-09T16:12:02.999Z</time>
      </trkpt>
      <trkpt lat="43.66217" lon="7.03737">
        <ele>234.33</ele>
        <time>2017-05-09T16:12:05.999Z</time>
      </trkpt>
      <trkpt lat="43.66205" lon="7.03734">
        <ele>233.3</ele>
        <time>2017-05-09T16:12:08.999Z</time>
      </trkpt>
      <trkpt lat="43.66195" lon="7.03742">
        <ele>233.3</ele>
        <time>2017-05-09T16:12:11.999Z</time>
      </trkpt>
      <trkpt lat="43.66192" lon="7.03756">
        <ele>233.24</ele>
        <time>2017-05-09T16:12:14.999Z</time>
      </trkpt>
      <trkpt lat="43.662" lon="7.03764">
        <ele>232.56</ele>
        <time>2017-05-09T16:12:17.999Z</time>
      </trkpt>
      <trkpt lat="43.66208" lon="7.03777">
        <ele>232.48</ele>
        <time>2017-05-09T16:12:20.999Z</time>
      </trkpt>
      <trkpt lat="43.66214" lon="7.0379">
        <ele>232.75</ele>
        <time>2017-05-09T16:12:22.999Z</time>
      </trkpt>
      <trkpt lat="43.66222" lon="7.03801">
        <ele>232.27</ele>
        <time>2017-05-09T16:12:24.999Z</time>
      </trkpt>
      <trkpt lat="43.66233" lon="7.03813">
        <ele>231.64</ele>
        <time>2017-05-09T16:12:26.999Z</time>
      </trkpt>
      <trkpt lat="43.66247" lon="7.03826">
        <ele>230.53</ele>
        <time>2017-05-09T16:12:28.999Z</time>
      </trkpt>
      <trkpt lat="43.66255" lon="7.03833">
        <ele>230.47</ele>
        <time>2017-05-09T16:12:29.999Z</time>
      </trkpt>
      <trkpt lat="43.66264" lon="7.0384">
        <ele>230.68</ele>
        <time>2017-05-09T16:12:30.999Z</time>
      </trkpt>
      <trkpt lat="43.66274" lon="7.03848">
        <ele>231.33</ele>
        <time>2017-05-09T16:12:31.999Z</time>
      </trkpt>
      <trkpt lat="43.66282" lon="7.03855">
        <ele>232.15</ele>
        <time>2017-05-09T16:12:32.999Z</time>
      </trkpt>
      <trkpt lat="43.66293" lon="7.03865">
        <ele>233.03</ele>
        <time>2017-05-09T16:12:34.999Z</time>
      </trkpt>
      <trkpt lat="43.66302" lon="7.03877">
        <ele>231.6</ele>
        <time>2017-05-09T16:12:36.999Z</time>
      </trkpt>
      <trkpt lat="43.66308" lon="7.03888">
        <ele>230.06</ele>
        <time>2017-05-09T16:12:38.999Z</time>
      </trkpt>
      <trkpt lat="43.66311" lon="7.03906">
        <ele>228.86</ele>
        <time>2017-05-09T16:12:41.999Z</time>
      </trkpt>
      <trkpt lat="43.6632" lon="7.03912">
        <ele>228.31</ele>
        <time>2017-05-09T16:12:45.999Z</time>
      </trkpt>
      <trkpt lat="43.66325" lon="7.03923">
        <ele>228.39</ele>
        <time>2017-05-09T16:12:47.999Z</time>
      </trkpt>
      <trkpt lat="43.66329" lon="7.03935">
        <ele>228.28</ele>
        <time>2017-05-09T16:12:49.999Z</time>
      </trkpt>
      <trkpt lat="43.66336" lon="7.03952">
        <ele>227.17</ele>
        <time>2017-05-09T16:12:52.999Z</time>
      </trkpt>
      <trkpt lat="43.66342" lon="7.03965">
        <ele>226.45</ele>
        <time>2017-05-09T16:12:54.999Z</time>
      </trkpt>
      <trkpt lat="43.66349" lon="7.03979">
        <ele>226.17</ele>
        <time>2017-05-09T16:12:56.999Z</time>
      </trkpt>
      <trkpt lat="43.66355" lon="7.03991">
        <ele>224.9</ele>
        <time>2017-05-09T16:12:58.999Z</time>
      </trkpt>
      <trkpt lat="43.66362" lon="7.04005">
        <ele>224.3</ele>
        <time>2017-05-09T16:13:00.999Z</time>
      </trkpt>
      <trkpt lat="43.66369" lon="7.0402">
        <ele>224.35</ele>
        <time>2017-05-09T16:13:02.999Z</time>
      </trkpt>
      <trkpt lat="43.66377" lon="7.04035">
        <ele>224.41</ele>
        <time>2017-05-09T16:13:04.999Z</time>
      </trkpt>
      <trkpt lat="43.66383" lon="7.04048">
        <ele>224.01</ele>
        <time>2017-05-09T16:13:06.999Z</time>
      </trkpt>
      <trkpt lat="43.66388" lon="7.04059">
        <ele>223.68</ele>
        <time>2017-05-09T16:13:08.999Z</time>
      </trkpt>
      <trkpt lat="43.66393" lon="7.0407">
        <ele>223.78</ele>
        <time>2017-05-09T16:13:10.999Z</time>
      </trkpt>
      <trkpt lat="43.66396" lon="7.04084">
        <ele>223.46</ele>
        <time>2017-05-09T16:13:12.999Z</time>
      </trkpt>
      <trkpt lat="43.66401" lon="7.04097">
        <ele>222.51</ele>
        <time>2017-05-09T16:13:14.999Z</time>
      </trkpt>
      <trkpt lat="43.66407" lon="7.04108">
        <ele>222.5</ele>
        <time>2017-05-09T16:13:16.999Z</time>
      </trkpt>
      <trkpt lat="43.66414" lon="7.0412">
        <ele>222.59</ele>
        <time>2017-05-09T16:13:18.999Z</time>
      </trkpt>
      <trkpt lat="43.66422" lon="7.04132">
        <ele>222.71</ele>
        <time>2017-05-09T16:13:21.999Z</time>
      </trkpt>
      <trkpt lat="43.6643" lon="7.0414">
        <ele>223.26</ele>
        <time>2017-05-09T16:13:23.999Z</time>
      </trkpt>
      <trkpt lat="43.66436" lon="7.04151">
        <ele>224.72</ele>
        <time>2017-05-09T16:13:25.999Z</time>
      </trkpt>
      <trkpt lat="43.6644" lon="7.04164">
        <ele>225.34</ele>
        <time>2017-05-09T16:13:27.999Z</time>
      </trkpt>
      <trkpt lat="43.66444" lon="7.04177">
        <ele>225.19</ele>
        <time>2017-05-09T16:13:29.999Z</time>
      </trkpt>
      <trkpt lat="43.66448" lon="7.0419">
        <ele>225.23</ele>
        <time>2017-05-09T16:13:31.999Z</time>
      </trkpt>
      <trkpt lat="43.66451" lon="7.04201">
        <ele>226.25</ele>
        <time>2017-05-09T16:13:33.999Z</time>
      </trkpt>
      <trkpt lat="43.66456" lon="7.04217">
        <ele>226.26</ele>
        <time>2017-05-09T16:13:36.999Z</time>
      </trkpt>
      <trkpt lat="43.6646" lon="7.04234">
        <ele>226.27</ele>
        <time>2017-05-09T16:13:39.999Z</time>
      </trkpt>
      <trkpt lat="43.66464" lon="7.04248">
        <ele>226.66</ele>
        <time>2017-05-09T16:13:42.999Z</time>
      </trkpt>
      <trkpt lat="43.66468" lon="7.04262">
        <ele>228.38</ele>
        <time>2017-05-09T16:13:45.999Z</time>
      </trkpt>
      <trkpt lat="43.66473" lon="7.04276">
        <ele>229.94</ele>
        <time>2017-05-09T16:13:48.999Z</time>
      </trkpt>
      <trkpt lat="43.66477" lon="7.04291">
        <ele>232.27</ele>
        <time>2017-05-09T16:13:51.999Z</time>
      </trkpt>
      <trkpt lat="43.6648" lon="7.04304">
        <ele>232.52</ele>
        <time>2017-05-09T16:13:54.999Z</time>
      </trkpt>
      <trkpt lat="43.66485" lon="7.04319">
        <ele>232.54</ele>
        <time>2017-05-09T16:13:57.999Z</time>
      </trkpt>
      <trkpt lat="43.66487" lon="7.04333">
        <ele>232.75</ele>
        <time>2017-05-09T16:14:00.999Z</time>
      </trkpt>
      <trkpt lat="43.66491" lon="7.04348">
        <ele>232.72</ele>
        <time>2017-05-09T16:14:03.999Z</time>
      </trkpt>
      <trkpt lat="43.66497" lon="7.04364">
        <ele>234.02</ele>
        <time>2017-05-09T16:14:06.999Z</time>
      </trkpt>
      <trkpt lat="43.66501" lon="7.04383">
        <ele>233.84</ele>
        <time>2017-05-09T16:14:09.999Z</time>
      </trkpt>
      <trkpt lat="43.66502" lon="7.04399">
        <ele>234.2</ele>
        <time>2017-05-09T16:14:11.999Z</time>
      </trkpt>
      <trkpt lat="43.66504" lon="7.04418">
        <ele>234.32</ele>
        <time>2017-05-09T16:14:14.999Z</time>
      </trkpt>
      <trkpt lat="43.66503" lon="7.04437">
        <ele>234.44</ele>
        <time>2017-05-09T16:14:17.999Z</time>
      </trkpt>
      <trkpt lat="43.66502" lon="7.0445">
        <ele>235.07</ele>
        <time>2017-05-09T16:14:19.999Z</time>
      </trkpt>
      <trkpt lat="43.66501" lon="7.04462">
        <ele>235.61</ele>
        <time>2017-05-09T16:14:21.999Z</time>
      </trkpt>
      <trkpt lat="43.66497" lon="7.04479">
        <ele>235.97</ele>
        <time>2017-05-09T16:14:24.999Z</time>
      </trkpt>
      <trkpt lat="43.66496" lon="7.04495">
        <ele>236.59</ele>
        <time>2017-05-09T16:14:27.999Z</time>
      </trkpt>
      <trkpt lat="43.66494" lon="7.04508">
        <ele>238.01</ele>
        <time>2017-05-09T16:14:29.999Z</time>
      </trkpt>
      <trkpt lat="43.66489" lon="7.04521">
        <ele>239.9</ele>
        <time>2017-05-09T16:14:32.999Z</time>
      </trkpt>
      <trkpt lat="43.66481" lon="7.04528">
        <ele>239.88</ele>
        <time>2017-05-09T16:14:34.999Z</time>
      </trkpt>
      <trkpt lat="43.6647" lon="7.04535">
        <ele>239.1</ele>
        <time>2017-05-09T16:14:37.999Z</time>
      </trkpt>
      <trkpt lat="43.66467" lon="7.04547">
        <ele>237.4</ele>
        <time>2017-05-09T16:14:40.999Z</time>
      </trkpt>
      <trkpt lat="43.66464" lon="7.04559">
        <ele>238.31</ele>
        <time>2017-05-09T16:14:42.999Z</time>
      </trkpt>
      <trkpt lat="43.66454" lon="7.04569">
        <ele>240.02</ele>
        <time>2017-05-09T16:14:44.999Z</time>
      </trkpt>
      <trkpt lat="43.66443" lon="7.04573">
        <ele>240.96</ele>
        <time>2017-05-09T16:14:47.999Z</time>
      </trkpt>
      <trkpt lat="43.6643" lon="7.04575">
        <ele>241.49</ele>
        <time>2017-05-09T16:14:50.999Z</time>
      </trkpt>
      <trkpt lat="43.66421" lon="7.04578">
        <ele>241.27</ele>
        <time>2017-05-09T16:14:52.999Z</time>
      </trkpt>
      <trkpt lat="43.66408" lon="7.04579">
        <ele>239.78</ele>
        <time>2017-05-09T16:14:55.999Z</time>
      </trkpt>
      <trkpt lat="43.66398" lon="7.0458">
        <ele>239.11</ele>
        <time>2017-05-09T16:14:57.999Z</time>
      </trkpt>
      <trkpt lat="43.66388" lon="7.0458">
        <ele>239.24</ele>
        <time>2017-05-09T16:15:00.999Z</time>
      </trkpt>
      <trkpt lat="43.66377" lon="7.04583">
        <ele>240.98</ele>
        <time>2017-05-09T16:15:04.999Z</time>
      </trkpt>
      <trkpt lat="43.66367" lon="7.04584">
        <ele>241.51</ele>
        <time>2017-05-09T16:15:07.999Z</time>
      </trkpt>
      <trkpt lat="43.66358" lon="7.04588">
        <ele>241.99</ele>
        <time>2017-05-09T16:15:10.999Z</time>
      </trkpt>
      <trkpt lat="43.66349" lon="7.04589">
        <ele>242.2</ele>
        <time>2017-05-09T16:15:13.999Z</time>
      </trkpt>
      <trkpt lat="43.66336" lon="7.04588">
        <ele>242.35</ele>
        <time>2017-05-09T16:15:17.999Z</time>
      </trkpt>
      <trkpt lat="43.66325" lon="7.04591">
        <ele>242.68</ele>
        <time>2017-05-09T16:15:20.999Z</time>
      </trkpt>
      <trkpt lat="43.66314" lon="7.04594">
        <ele>243.07</ele>
        <time>2017-05-09T16:15:23.999Z</time>
      </trkpt>
      <trkpt lat="43.66304" lon="7.04598">
        <ele>246.39</ele>
        <time>2017-05-09T16:15:25.999Z</time>
      </trkpt>
      <trkpt lat="43.66293" lon="7.04604">
        <ele>248.36</ele>
        <time>2017-05-09T16:15:27.999Z</time>
      </trkpt>
      <trkpt lat="43.66284" lon="7.0461">
        <ele>249.88</ele>
        <time>2017-05-09T16:15:29.999Z</time>
      </trkpt>
      <trkpt lat="43.66273" lon="7.04618">
        <ele>251.08</ele>
        <time>2017-05-09T16:15:31.999Z</time>
      </trkpt>
      <trkpt lat="43.66264" lon="7.04626">
        <ele>251.39</ele>
        <time>2017-05-09T16:15:33.999Z</time>
      </trkpt>
      <trkpt lat="43.66255" lon="7.04635">
        <ele>251.02</ele>
        <time>2017-05-09T16:15:35.999Z</time>
      </trkpt>
      <trkpt lat="43.66247" lon="7.04642">
        <ele>251.04</ele>
        <time>2017-05-09T16:15:37.999Z</time>
      </trkpt>
      <trkpt lat="43.66236" lon="7.04646">
        <ele>250.89</ele>
        <time>2017-05-09T16:15:40.999Z</time>
      </trkpt>
      <trkpt lat="43.66228" lon="7.04654">
        <ele>248.89</ele>
        <time>2017-05-09T16:15:44.999Z</time>
      </trkpt>
      <trkpt lat="43.66219" lon="7.04664">
        <ele>245.26</ele>
        <time>2017-05-09T16:15:47.999Z</time>
      </trkpt>
      <trkpt lat="43.66222" lon="7.04681">
        <ele>244.67</ele>
        <time>2017-05-09T16:15:50.999Z</time>
      </trkpt>
      <trkpt lat="43.66227" lon="7.04693">
        <ele>244.09</ele>
        <time>2017-05-09T16:15:52.999Z</time>
      </trkpt>
      <trkpt lat="43.66226" lon="7.04707">
        <ele>244.75</ele>
        <time>2017-05-09T16:15:54.999Z</time>
      </trkpt>
      <trkpt lat="43.66224" lon="7.04721">
        <ele>245.61</ele>
        <time>2017-05-09T16:15:56.999Z</time>
      </trkpt>
      <trkpt lat="43.66223" lon="7.04738">
        <ele>245.99</ele>
        <time>2017-05-09T16:15:59.999Z</time>
      </trkpt>
      <trkpt lat="43.66222" lon="7.04752">
        <ele>245.32</ele>
        <time>2017-05-09T16:16:01.999Z</time>
      </trkpt>
      <trkpt lat="43.6622" lon="7.04767">
        <ele>245.1</ele>
        <time>2017-05-09T16:16:04.999Z</time>
      </trkpt>
      <trkpt lat="43.66216" lon="7.04781">
        <ele>245.02</ele>
        <time>2017-05-09T16:16:07.999Z</time>
      </trkpt>
      <trkpt lat="43.66215" lon="7.04797">
        <ele>245.13</ele>
        <time>2017-05-09T16:16:10.999Z</time>
      </trkpt>
      <trkpt lat="43.66208" lon="7.04806">
        <ele>245.47</ele>
        <time>2017-05-09T16:16:12.999Z</time>
      </trkpt>
      <trkpt lat="43.66201" lon="7.04819">
        <ele>246.78</ele>
        <time>2017-05-09T16:16:15.999Z</time>
      </trkpt>
      <trkpt lat="43.66199" lon="7.04834">
        <ele>247.02</ele>
        <time>2017-05-09T16:16:18.999Z</time>
      </trkpt>
      <trkpt lat="43.66203" lon="7.04849">
        <ele>248.13</ele>
        <time>2017-05-09T16:16:21.999Z</time>
      </trkpt>
      <trkpt lat="43.66209" lon="7.04864">
        <ele>247.36</ele>
        <time>2017-05-09T16:16:25.999Z</time>
      </trkpt>
      <trkpt lat="43.66216" lon="7.04874">
        <ele>246.17</ele>
        <time>2017-05-09T16:16:28.999Z</time>
      </trkpt>
      <trkpt lat="43.66218" lon="7.04888">
        <ele>245.96</ele>
        <time>2017-05-09T16:16:31.999Z</time>
      </trkpt>
      <trkpt lat="43.66228" lon="7.04897">
        <ele>246.23</ele>
        <time>2017-05-09T16:17:18.999Z</time>
      </trkpt>
      <trkpt lat="43.66232" lon="7.04886">
        <ele>247.93</ele>
        <time>2017-05-09T16:17:54.999Z</time>
      </trkpt>
      <trkpt lat="43.66243" lon="7.0488">
        <ele>247.11</ele>
        <time>2017-05-09T16:19:15.999Z</time>
      </trkpt>
    </trkseg>
  </trk>
</gpx>